<?xml version="1.0" encoding="UTF-8" standalone="no" ?>
<gpx xmlns="http://www.topografix.com/GPX/1/1" xmlns:xsi="http://www.w3.org/2001/XMLSchema-instance" xsi:schemaLocation="http://www.topografix.com/GPX/1/1 http://www.topografix.com/GPX/1/1/gpx.xsd" version="1.1" creator="VisuGPX - https://www.visugpx.com">
  <metadata>
    <name>Les îles éoliennes 01</name>
    <desc><![CDATA[Avril 18 Oceanis 43 équipage Bruno S J M et G. depuis Portorosa]]></desc>
  </metadata>
  <trk>
    <name><![CDATA[Tracé actuel: 15 AVR 2018 16:51]]></name>
    <trkseg>
      <trkpt lat="38.2748" lon="15.11658">
        <ele>1.1</ele>
        <time>2018-04-15T14:51:31Z</time>
      </trkpt>
      <trkpt lat="38.27507" lon="15.11652">
        <ele>1.58</ele>
        <time>2018-04-15T14:51:40Z</time>
      </trkpt>
      <trkpt lat="38.27539" lon="15.11643">
        <ele>1.1</ele>
        <time>2018-04-15T14:51:51Z</time>
      </trkpt>
      <trkpt lat="38.2758" lon="15.11631">
        <ele>1.1</ele>
        <time>2018-04-15T14:52:05Z</time>
      </trkpt>
      <trkpt lat="38.27582" lon="15.1163">
        <ele>1.1</ele>
        <time>2018-04-15T14:52:06Z</time>
      </trkpt>
      <trkpt lat="38.2762" lon="15.1162">
        <ele>1.58</ele>
        <time>2018-04-15T14:52:19Z</time>
      </trkpt>
      <trkpt lat="38.27659" lon="15.11618">
        <ele>0.62</ele>
        <time>2018-04-15T14:52:31Z</time>
      </trkpt>
      <trkpt lat="38.27694" lon="15.11615">
        <ele>0.62</ele>
        <time>2018-04-15T14:52:41Z</time>
      </trkpt>
      <trkpt lat="38.2773" lon="15.1161">
        <ele>0.62</ele>
        <time>2018-04-15T14:52:52Z</time>
      </trkpt>
      <trkpt lat="38.27762" lon="15.11603">
        <ele>1.1</ele>
        <time>2018-04-15T14:53:03Z</time>
      </trkpt>
      <trkpt lat="38.27765" lon="15.11604">
        <ele>1.58</ele>
        <time>2018-04-15T14:53:04Z</time>
      </trkpt>
      <trkpt lat="38.27783" lon="15.116">
        <ele>1.1</ele>
        <time>2018-04-15T14:53:10Z</time>
      </trkpt>
      <trkpt lat="38.2782" lon="15.11596">
        <ele>1.1</ele>
        <time>2018-04-15T14:53:22Z</time>
      </trkpt>
      <trkpt lat="38.27848" lon="15.11591">
        <ele>1.58</ele>
        <time>2018-04-15T14:53:31Z</time>
      </trkpt>
      <trkpt lat="38.27892" lon="15.11587">
        <ele>1.58</ele>
        <time>2018-04-15T14:53:45Z</time>
      </trkpt>
      <trkpt lat="38.27928" lon="15.11586">
        <ele>1.58</ele>
        <time>2018-04-15T14:53:56Z</time>
      </trkpt>
      <trkpt lat="38.27962" lon="15.11592">
        <ele>1.1</ele>
        <time>2018-04-15T14:54:06Z</time>
      </trkpt>
      <trkpt lat="38.28001" lon="15.11602">
        <ele>0.62</ele>
        <time>2018-04-15T14:54:17Z</time>
      </trkpt>
      <trkpt lat="38.2804" lon="15.11603">
        <ele>0.14</ele>
        <time>2018-04-15T14:54:28Z</time>
      </trkpt>
      <trkpt lat="38.28074" lon="15.11607">
        <ele>0.62</ele>
        <time>2018-04-15T14:54:38Z</time>
      </trkpt>
      <trkpt lat="38.28107" lon="15.11606">
        <ele>0.62</ele>
        <time>2018-04-15T14:54:48Z</time>
      </trkpt>
      <trkpt lat="38.28142" lon="15.11607">
        <ele>0.62</ele>
        <time>2018-04-15T14:54:59Z</time>
      </trkpt>
      <trkpt lat="38.28171" lon="15.11605">
        <ele>0.62</ele>
        <time>2018-04-15T14:55:08Z</time>
      </trkpt>
      <trkpt lat="38.28203" lon="15.11603">
        <ele>1.1</ele>
        <time>2018-04-15T14:55:18Z</time>
      </trkpt>
      <trkpt lat="38.28234" lon="15.11596">
        <ele>1.1</ele>
        <time>2018-04-15T14:55:28Z</time>
      </trkpt>
      <trkpt lat="38.28277" lon="15.11599">
        <ele>1.1</ele>
        <time>2018-04-15T14:55:41Z</time>
      </trkpt>
      <trkpt lat="38.28313" lon="15.11596">
        <ele>1.1</ele>
        <time>2018-04-15T14:55:52Z</time>
      </trkpt>
      <trkpt lat="38.28326" lon="15.11595">
        <ele>1.1</ele>
        <time>2018-04-15T14:55:56Z</time>
      </trkpt>
      <trkpt lat="38.28362" lon="15.11587">
        <ele>1.1</ele>
        <time>2018-04-15T14:56:09Z</time>
      </trkpt>
      <trkpt lat="38.28404" lon="15.11576">
        <ele>0.62</ele>
        <time>2018-04-15T14:56:24Z</time>
      </trkpt>
      <trkpt lat="38.28407" lon="15.11577">
        <ele>1.1</ele>
        <time>2018-04-15T14:56:25Z</time>
      </trkpt>
      <trkpt lat="38.28418" lon="15.11574">
        <ele>0.14</ele>
        <time>2018-04-15T14:56:29Z</time>
      </trkpt>
      <trkpt lat="38.28462" lon="15.11569">
        <ele>1.1</ele>
        <time>2018-04-15T14:56:43Z</time>
      </trkpt>
      <trkpt lat="38.28496" lon="15.11564">
        <ele>0.62</ele>
        <time>2018-04-15T14:56:54Z</time>
      </trkpt>
      <trkpt lat="38.28532" lon="15.11562">
        <ele>0.62</ele>
        <time>2018-04-15T14:57:05Z</time>
      </trkpt>
      <trkpt lat="38.28562" lon="15.11561">
        <ele>1.1</ele>
        <time>2018-04-15T14:57:14Z</time>
      </trkpt>
      <trkpt lat="38.2858" lon="15.11556">
        <ele>1.1</ele>
        <time>2018-04-15T14:57:20Z</time>
      </trkpt>
      <trkpt lat="38.28619" lon="15.11549">
        <ele>1.1</ele>
        <time>2018-04-15T14:57:33Z</time>
      </trkpt>
      <trkpt lat="38.28647" lon="15.11538">
        <ele>0.62</ele>
        <time>2018-04-15T14:57:44Z</time>
      </trkpt>
      <trkpt lat="38.28659" lon="15.11537">
        <ele>0.62</ele>
        <time>2018-04-15T14:57:48Z</time>
      </trkpt>
      <trkpt lat="38.28688" lon="15.11531">
        <ele>1.1</ele>
        <time>2018-04-15T14:57:58Z</time>
      </trkpt>
      <trkpt lat="38.28697" lon="15.11529">
        <ele>0.62</ele>
        <time>2018-04-15T14:58:01Z</time>
      </trkpt>
      <trkpt lat="38.28722" lon="15.11525">
        <ele>1.1</ele>
        <time>2018-04-15T14:58:10Z</time>
      </trkpt>
      <trkpt lat="38.28731" lon="15.11522">
        <ele>1.1</ele>
        <time>2018-04-15T14:58:13Z</time>
      </trkpt>
      <trkpt lat="38.28762" lon="15.11511">
        <ele>0.62</ele>
        <time>2018-04-15T14:58:25Z</time>
      </trkpt>
      <trkpt lat="38.28774" lon="15.11507">
        <ele>0.62</ele>
        <time>2018-04-15T14:58:30Z</time>
      </trkpt>
      <trkpt lat="38.2878" lon="15.11509">
        <ele>1.1</ele>
        <time>2018-04-15T14:58:32Z</time>
      </trkpt>
      <trkpt lat="38.28807" lon="15.11499">
        <ele>1.1</ele>
        <time>2018-04-15T14:58:43Z</time>
      </trkpt>
      <trkpt lat="38.28813" lon="15.11499">
        <ele>1.1</ele>
        <time>2018-04-15T14:58:45Z</time>
      </trkpt>
      <trkpt lat="38.2884" lon="15.11497">
        <ele>1.58</ele>
        <time>2018-04-15T14:58:54Z</time>
      </trkpt>
      <trkpt lat="38.28854" lon="15.11491">
        <ele>1.1</ele>
        <time>2018-04-15T14:58:59Z</time>
      </trkpt>
      <trkpt lat="38.28895" lon="15.11484">
        <ele>1.1</ele>
        <time>2018-04-15T14:59:13Z</time>
      </trkpt>
      <trkpt lat="38.28938" lon="15.1148">
        <ele>1.1</ele>
        <time>2018-04-15T14:59:26Z</time>
      </trkpt>
      <trkpt lat="38.28968" lon="15.11476">
        <ele>1.1</ele>
        <time>2018-04-15T14:59:35Z</time>
      </trkpt>
      <trkpt lat="38.29004" lon="15.11473">
        <ele>0.62</ele>
        <time>2018-04-15T14:59:46Z</time>
      </trkpt>
      <trkpt lat="38.29041" lon="15.11472">
        <ele>1.1</ele>
        <time>2018-04-15T14:59:57Z</time>
      </trkpt>
      <trkpt lat="38.29047" lon="15.11472">
        <ele>1.58</ele>
        <time>2018-04-15T14:59:59Z</time>
      </trkpt>
      <trkpt lat="38.2908" lon="15.11463">
        <ele>0.62</ele>
        <time>2018-04-15T15:00:10Z</time>
      </trkpt>
      <trkpt lat="38.29116" lon="15.11457">
        <ele>0.62</ele>
        <time>2018-04-15T15:00:21Z</time>
      </trkpt>
      <trkpt lat="38.29157" lon="15.11458">
        <ele>0.62</ele>
        <time>2018-04-15T15:00:33Z</time>
      </trkpt>
      <trkpt lat="38.29193" lon="15.11452">
        <ele>1.1</ele>
        <time>2018-04-15T15:00:44Z</time>
      </trkpt>
      <trkpt lat="38.29228" lon="15.11444">
        <ele>0.62</ele>
        <time>2018-04-15T15:00:55Z</time>
      </trkpt>
      <trkpt lat="38.29265" lon="15.11437">
        <ele>0.62</ele>
        <time>2018-04-15T15:01:07Z</time>
      </trkpt>
      <trkpt lat="38.29299" lon="15.11433">
        <ele>0.62</ele>
        <time>2018-04-15T15:01:18Z</time>
      </trkpt>
      <trkpt lat="38.2933" lon="15.11429">
        <ele>0.62</ele>
        <time>2018-04-15T15:01:28Z</time>
      </trkpt>
      <trkpt lat="38.29371" lon="15.1142">
        <ele>0.62</ele>
        <time>2018-04-15T15:01:41Z</time>
      </trkpt>
      <trkpt lat="38.29395" lon="15.11411">
        <ele>0.14</ele>
        <time>2018-04-15T15:01:50Z</time>
      </trkpt>
      <trkpt lat="38.29424" lon="15.11408">
        <ele>1.1</ele>
        <time>2018-04-15T15:01:59Z</time>
      </trkpt>
      <trkpt lat="38.2943" lon="15.11408">
        <ele>0.62</ele>
        <time>2018-04-15T15:02:01Z</time>
      </trkpt>
      <trkpt lat="38.29461" lon="15.11405">
        <ele>0.62</ele>
        <time>2018-04-15T15:02:11Z</time>
      </trkpt>
      <trkpt lat="38.29474" lon="15.11404">
        <ele>0.62</ele>
        <time>2018-04-15T15:02:15Z</time>
      </trkpt>
      <trkpt lat="38.2952" lon="15.11401">
        <ele>1.1</ele>
        <time>2018-04-15T15:02:29Z</time>
      </trkpt>
      <trkpt lat="38.29548" lon="15.11393">
        <ele>1.1</ele>
        <time>2018-04-15T15:02:38Z</time>
      </trkpt>
      <trkpt lat="38.29587" lon="15.11397">
        <ele>0.62</ele>
        <time>2018-04-15T15:02:50Z</time>
      </trkpt>
      <trkpt lat="38.29624" lon="15.11393">
        <ele>1.1</ele>
        <time>2018-04-15T15:03:01Z</time>
      </trkpt>
      <trkpt lat="38.29662" lon="15.11392">
        <ele>1.58</ele>
        <time>2018-04-15T15:03:12Z</time>
      </trkpt>
      <trkpt lat="38.29701" lon="15.11387">
        <ele>0.62</ele>
        <time>2018-04-15T15:03:24Z</time>
      </trkpt>
      <trkpt lat="38.29736" lon="15.11376">
        <ele>0.62</ele>
        <time>2018-04-15T15:03:36Z</time>
      </trkpt>
      <trkpt lat="38.29769" lon="15.11369">
        <ele>1.58</ele>
        <time>2018-04-15T15:03:48Z</time>
      </trkpt>
      <trkpt lat="38.29785" lon="15.11368">
        <ele>1.1</ele>
        <time>2018-04-15T15:03:53Z</time>
      </trkpt>
      <trkpt lat="38.29798" lon="15.11362">
        <ele>1.1</ele>
        <time>2018-04-15T15:03:58Z</time>
      </trkpt>
      <trkpt lat="38.29832" lon="15.11358">
        <ele>1.1</ele>
        <time>2018-04-15T15:04:09Z</time>
      </trkpt>
      <trkpt lat="38.29871" lon="15.11351">
        <ele>0.62</ele>
        <time>2018-04-15T15:04:21Z</time>
      </trkpt>
      <trkpt lat="38.29908" lon="15.11341">
        <ele>0.14</ele>
        <time>2018-04-15T15:04:33Z</time>
      </trkpt>
      <trkpt lat="38.29938" lon="15.11335">
        <ele>0.62</ele>
        <time>2018-04-15T15:04:42Z</time>
      </trkpt>
      <trkpt lat="38.29976" lon="15.11319">
        <ele>1.1</ele>
        <time>2018-04-15T15:04:56Z</time>
      </trkpt>
      <trkpt lat="38.29978" lon="15.11317">
        <ele>1.1</ele>
        <time>2018-04-15T15:04:57Z</time>
      </trkpt>
      <trkpt lat="38.30005" lon="15.11302">
        <ele>1.1</ele>
        <time>2018-04-15T15:05:09Z</time>
      </trkpt>
      <trkpt lat="38.30036" lon="15.11295">
        <ele>1.1</ele>
        <time>2018-04-15T15:05:20Z</time>
      </trkpt>
      <trkpt lat="38.30059" lon="15.11282">
        <ele>1.58</ele>
        <time>2018-04-15T15:05:30Z</time>
      </trkpt>
      <trkpt lat="38.30093" lon="15.11272">
        <ele>3.02</ele>
        <time>2018-04-15T15:05:42Z</time>
      </trkpt>
      <trkpt lat="38.30109" lon="15.11266">
        <ele>3.02</ele>
        <time>2018-04-15T15:05:48Z</time>
      </trkpt>
      <trkpt lat="38.30139" lon="15.11263">
        <ele>2.06</ele>
        <time>2018-04-15T15:05:57Z</time>
      </trkpt>
      <trkpt lat="38.30188" lon="15.11269">
        <ele>1.58</ele>
        <time>2018-04-15T15:06:11Z</time>
      </trkpt>
      <trkpt lat="38.30227" lon="15.11264">
        <ele>1.1</ele>
        <time>2018-04-15T15:06:22Z</time>
      </trkpt>
      <trkpt lat="38.30275" lon="15.11269">
        <ele>1.1</ele>
        <time>2018-04-15T15:06:35Z</time>
      </trkpt>
      <trkpt lat="38.3032" lon="15.11282">
        <ele>1.58</ele>
        <time>2018-04-15T15:06:48Z</time>
      </trkpt>
      <trkpt lat="38.3036" lon="15.11294">
        <ele>2.06</ele>
        <time>2018-04-15T15:07:00Z</time>
      </trkpt>
      <trkpt lat="38.30393" lon="15.11299">
        <ele>2.06</ele>
        <time>2018-04-15T15:07:10Z</time>
      </trkpt>
      <trkpt lat="38.30429" lon="15.113">
        <ele>2.06</ele>
        <time>2018-04-15T15:07:20Z</time>
      </trkpt>
      <trkpt lat="38.30468" lon="15.113">
        <ele>1.58</ele>
        <time>2018-04-15T15:07:31Z</time>
      </trkpt>
      <trkpt lat="38.30517" lon="15.11304">
        <ele>3.02</ele>
        <time>2018-04-15T15:07:44Z</time>
      </trkpt>
      <trkpt lat="38.30556" lon="15.11299">
        <ele>2.54</ele>
        <time>2018-04-15T15:07:55Z</time>
      </trkpt>
      <trkpt lat="38.30598" lon="15.1129">
        <ele>2.06</ele>
        <time>2018-04-15T15:08:07Z</time>
      </trkpt>
      <trkpt lat="38.30608" lon="15.11287">
        <ele>1.58</ele>
        <time>2018-04-15T15:08:10Z</time>
      </trkpt>
      <trkpt lat="38.30642" lon="15.1128">
        <ele>1.1</ele>
        <time>2018-04-15T15:08:20Z</time>
      </trkpt>
      <trkpt lat="38.30694" lon="15.11273">
        <ele>1.1</ele>
        <time>2018-04-15T15:08:35Z</time>
      </trkpt>
      <trkpt lat="38.30736" lon="15.11274">
        <ele>1.1</ele>
        <time>2018-04-15T15:08:47Z</time>
      </trkpt>
      <trkpt lat="38.30778" lon="15.11281">
        <ele>1.1</ele>
        <time>2018-04-15T15:08:59Z</time>
      </trkpt>
      <trkpt lat="38.30811" lon="15.11284">
        <ele>1.1</ele>
        <time>2018-04-15T15:09:09Z</time>
      </trkpt>
      <trkpt lat="38.30853" lon="15.11289">
        <ele>1.1</ele>
        <time>2018-04-15T15:09:21Z</time>
      </trkpt>
      <trkpt lat="38.3089" lon="15.11296">
        <ele>1.1</ele>
        <time>2018-04-15T15:09:32Z</time>
      </trkpt>
      <trkpt lat="38.30945" lon="15.11308">
        <ele>1.1</ele>
        <time>2018-04-15T15:09:48Z</time>
      </trkpt>
      <trkpt lat="38.30982" lon="15.11315">
        <ele>1.1</ele>
        <time>2018-04-15T15:09:59Z</time>
      </trkpt>
      <trkpt lat="38.3102" lon="15.1132">
        <ele>1.58</ele>
        <time>2018-04-15T15:10:10Z</time>
      </trkpt>
      <trkpt lat="38.31057" lon="15.11318">
        <ele>1.58</ele>
        <time>2018-04-15T15:10:21Z</time>
      </trkpt>
      <trkpt lat="38.31102" lon="15.1131">
        <ele>1.1</ele>
        <time>2018-04-15T15:10:34Z</time>
      </trkpt>
      <trkpt lat="38.31148" lon="15.11299">
        <ele>0.62</ele>
        <time>2018-04-15T15:10:48Z</time>
      </trkpt>
      <trkpt lat="38.31186" lon="15.1129">
        <ele>1.1</ele>
        <time>2018-04-15T15:10:59Z</time>
      </trkpt>
      <trkpt lat="38.31226" lon="15.11275">
        <ele>1.1</ele>
        <time>2018-04-15T15:11:12Z</time>
      </trkpt>
      <trkpt lat="38.31261" lon="15.11264">
        <ele>0.62</ele>
        <time>2018-04-15T15:11:23Z</time>
      </trkpt>
      <trkpt lat="38.31305" lon="15.11252">
        <ele>1.1</ele>
        <time>2018-04-15T15:11:36Z</time>
      </trkpt>
      <trkpt lat="38.31342" lon="15.11238">
        <ele>1.1</ele>
        <time>2018-04-15T15:11:48Z</time>
      </trkpt>
      <trkpt lat="38.31376" lon="15.11225">
        <ele>0.62</ele>
        <time>2018-04-15T15:11:59Z</time>
      </trkpt>
      <trkpt lat="38.31402" lon="15.11217">
        <ele>1.1</ele>
        <time>2018-04-15T15:12:07Z</time>
      </trkpt>
      <trkpt lat="38.31424" lon="15.11202">
        <ele>1.58</ele>
        <time>2018-04-15T15:12:16Z</time>
      </trkpt>
      <trkpt lat="38.31453" lon="15.11192">
        <ele>0.62</ele>
        <time>2018-04-15T15:12:26Z</time>
      </trkpt>
      <trkpt lat="38.31493" lon="15.11178">
        <ele>0.14</ele>
        <time>2018-04-15T15:12:39Z</time>
      </trkpt>
      <trkpt lat="38.3153" lon="15.11163">
        <ele>1.1</ele>
        <time>2018-04-15T15:12:51Z</time>
      </trkpt>
      <trkpt lat="38.31555" lon="15.11147">
        <ele>1.58</ele>
        <time>2018-04-15T15:13:01Z</time>
      </trkpt>
      <trkpt lat="38.31588" lon="15.11129">
        <ele>1.58</ele>
        <time>2018-04-15T15:13:14Z</time>
      </trkpt>
      <trkpt lat="38.31622" lon="15.11111">
        <ele>1.1</ele>
        <time>2018-04-15T15:13:27Z</time>
      </trkpt>
      <trkpt lat="38.31654" lon="15.11094">
        <ele>1.58</ele>
        <time>2018-04-15T15:13:39Z</time>
      </trkpt>
      <trkpt lat="38.31682" lon="15.11081">
        <ele>1.58</ele>
        <time>2018-04-15T15:13:49Z</time>
      </trkpt>
      <trkpt lat="38.31709" lon="15.11062">
        <ele>2.06</ele>
        <time>2018-04-15T15:14:00Z</time>
      </trkpt>
      <trkpt lat="38.31732" lon="15.11047">
        <ele>1.58</ele>
        <time>2018-04-15T15:14:10Z</time>
      </trkpt>
      <trkpt lat="38.31762" lon="15.11028">
        <ele>1.1</ele>
        <time>2018-04-15T15:14:23Z</time>
      </trkpt>
      <trkpt lat="38.31788" lon="15.11014">
        <ele>1.58</ele>
        <time>2018-04-15T15:14:34Z</time>
      </trkpt>
      <trkpt lat="38.31815" lon="15.10997">
        <ele>1.58</ele>
        <time>2018-04-15T15:14:45Z</time>
      </trkpt>
      <trkpt lat="38.31841" lon="15.1098">
        <ele>1.58</ele>
        <time>2018-04-15T15:14:56Z</time>
      </trkpt>
      <trkpt lat="38.31873" lon="15.10961">
        <ele>2.06</ele>
        <time>2018-04-15T15:15:09Z</time>
      </trkpt>
      <trkpt lat="38.31902" lon="15.10942">
        <ele>2.06</ele>
        <time>2018-04-15T15:15:21Z</time>
      </trkpt>
      <trkpt lat="38.31938" lon="15.10921">
        <ele>2.06</ele>
        <time>2018-04-15T15:15:35Z</time>
      </trkpt>
      <trkpt lat="38.31971" lon="15.10896">
        <ele>2.06</ele>
        <time>2018-04-15T15:15:50Z</time>
      </trkpt>
      <trkpt lat="38.31999" lon="15.10876">
        <ele>1.1</ele>
        <time>2018-04-15T15:16:03Z</time>
      </trkpt>
      <trkpt lat="38.32026" lon="15.10856">
        <ele>1.1</ele>
        <time>2018-04-15T15:16:16Z</time>
      </trkpt>
      <trkpt lat="38.32055" lon="15.10843">
        <ele>1.58</ele>
        <time>2018-04-15T15:16:28Z</time>
      </trkpt>
      <trkpt lat="38.32082" lon="15.10828">
        <ele>1.58</ele>
        <time>2018-04-15T15:16:38Z</time>
      </trkpt>
      <trkpt lat="38.32112" lon="15.10815">
        <ele>1.1</ele>
        <time>2018-04-15T15:16:48Z</time>
      </trkpt>
      <trkpt lat="38.32146" lon="15.10801">
        <ele>1.1</ele>
        <time>2018-04-15T15:16:59Z</time>
      </trkpt>
      <trkpt lat="38.32175" lon="15.10784">
        <ele>1.58</ele>
        <time>2018-04-15T15:17:09Z</time>
      </trkpt>
      <trkpt lat="38.32209" lon="15.10772">
        <ele>1.58</ele>
        <time>2018-04-15T15:17:20Z</time>
      </trkpt>
      <trkpt lat="38.32238" lon="15.1075">
        <ele>2.06</ele>
        <time>2018-04-15T15:17:32Z</time>
      </trkpt>
      <trkpt lat="38.32267" lon="15.10734">
        <ele>2.06</ele>
        <time>2018-04-15T15:17:43Z</time>
      </trkpt>
      <trkpt lat="38.32304" lon="15.10712">
        <ele>1.1</ele>
        <time>2018-04-15T15:17:57Z</time>
      </trkpt>
      <trkpt lat="38.32336" lon="15.10692">
        <ele>1.58</ele>
        <time>2018-04-15T15:18:09Z</time>
      </trkpt>
      <trkpt lat="38.32361" lon="15.1068">
        <ele>1.1</ele>
        <time>2018-04-15T15:18:18Z</time>
      </trkpt>
      <trkpt lat="38.32377" lon="15.10671">
        <ele>1.58</ele>
        <time>2018-04-15T15:18:24Z</time>
      </trkpt>
      <trkpt lat="38.32412" lon="15.10647">
        <ele>1.1</ele>
        <time>2018-04-15T15:18:38Z</time>
      </trkpt>
      <trkpt lat="38.32441" lon="15.10629">
        <ele>1.58</ele>
        <time>2018-04-15T15:18:50Z</time>
      </trkpt>
      <trkpt lat="38.32477" lon="15.1061">
        <ele>1.58</ele>
        <time>2018-04-15T15:19:03Z</time>
      </trkpt>
      <trkpt lat="38.32507" lon="15.1059">
        <ele>2.06</ele>
        <time>2018-04-15T15:19:15Z</time>
      </trkpt>
      <trkpt lat="38.32534" lon="15.10573">
        <ele>2.06</ele>
        <time>2018-04-15T15:19:26Z</time>
      </trkpt>
      <trkpt lat="38.32566" lon="15.10553">
        <ele>2.06</ele>
        <time>2018-04-15T15:19:39Z</time>
      </trkpt>
      <trkpt lat="38.32593" lon="15.10534">
        <ele>1.58</ele>
        <time>2018-04-15T15:19:51Z</time>
      </trkpt>
      <trkpt lat="38.32625" lon="15.10515">
        <ele>1.1</ele>
        <time>2018-04-15T15:20:04Z</time>
      </trkpt>
      <trkpt lat="38.32652" lon="15.10502">
        <ele>0.62</ele>
        <time>2018-04-15T15:20:14Z</time>
      </trkpt>
      <trkpt lat="38.32669" lon="15.10494">
        <ele>0.62</ele>
        <time>2018-04-15T15:20:20Z</time>
      </trkpt>
      <trkpt lat="38.32692" lon="15.1048">
        <ele>1.1</ele>
        <time>2018-04-15T15:20:29Z</time>
      </trkpt>
      <trkpt lat="38.32728" lon="15.1046">
        <ele>1.1</ele>
        <time>2018-04-15T15:20:43Z</time>
      </trkpt>
      <trkpt lat="38.32762" lon="15.1044">
        <ele>1.1</ele>
        <time>2018-04-15T15:20:56Z</time>
      </trkpt>
      <trkpt lat="38.32794" lon="15.10421">
        <ele>1.1</ele>
        <time>2018-04-15T15:21:09Z</time>
      </trkpt>
      <trkpt lat="38.32826" lon="15.10404">
        <ele>1.1</ele>
        <time>2018-04-15T15:21:22Z</time>
      </trkpt>
      <trkpt lat="38.32867" lon="15.10377">
        <ele>1.58</ele>
        <time>2018-04-15T15:21:39Z</time>
      </trkpt>
      <trkpt lat="38.32901" lon="15.1036">
        <ele>1.1</ele>
        <time>2018-04-15T15:21:52Z</time>
      </trkpt>
      <trkpt lat="38.32934" lon="15.10341">
        <ele>1.1</ele>
        <time>2018-04-15T15:22:05Z</time>
      </trkpt>
      <trkpt lat="38.32969" lon="15.10321">
        <ele>1.1</ele>
        <time>2018-04-15T15:22:19Z</time>
      </trkpt>
      <trkpt lat="38.32996" lon="15.10306">
        <ele>1.1</ele>
        <time>2018-04-15T15:22:30Z</time>
      </trkpt>
      <trkpt lat="38.33022" lon="15.10289">
        <ele>1.58</ele>
        <time>2018-04-15T15:22:42Z</time>
      </trkpt>
      <trkpt lat="38.33051" lon="15.10273">
        <ele>1.58</ele>
        <time>2018-04-15T15:22:56Z</time>
      </trkpt>
      <trkpt lat="38.33077" lon="15.10259">
        <ele>1.58</ele>
        <time>2018-04-15T15:23:07Z</time>
      </trkpt>
      <trkpt lat="38.33111" lon="15.10244">
        <ele>2.06</ele>
        <time>2018-04-15T15:23:20Z</time>
      </trkpt>
      <trkpt lat="38.33139" lon="15.10228">
        <ele>1.58</ele>
        <time>2018-04-15T15:23:32Z</time>
      </trkpt>
      <trkpt lat="38.33167" lon="15.10211">
        <ele>2.06</ele>
        <time>2018-04-15T15:23:45Z</time>
      </trkpt>
      <trkpt lat="38.3319" lon="15.10197">
        <ele>2.06</ele>
        <time>2018-04-15T15:23:57Z</time>
      </trkpt>
      <trkpt lat="38.33214" lon="15.10184">
        <ele>2.06</ele>
        <time>2018-04-15T15:24:08Z</time>
      </trkpt>
      <trkpt lat="38.33238" lon="15.10172">
        <ele>1.58</ele>
        <time>2018-04-15T15:24:19Z</time>
      </trkpt>
      <trkpt lat="38.33264" lon="15.10156">
        <ele>2.06</ele>
        <time>2018-04-15T15:24:31Z</time>
      </trkpt>
      <trkpt lat="38.33292" lon="15.1014">
        <ele>2.06</ele>
        <time>2018-04-15T15:24:44Z</time>
      </trkpt>
      <trkpt lat="38.33324" lon="15.1012">
        <ele>2.06</ele>
        <time>2018-04-15T15:24:59Z</time>
      </trkpt>
      <trkpt lat="38.3335" lon="15.10102">
        <ele>2.06</ele>
        <time>2018-04-15T15:25:12Z</time>
      </trkpt>
      <trkpt lat="38.33375" lon="15.10087">
        <ele>2.06</ele>
        <time>2018-04-15T15:25:24Z</time>
      </trkpt>
      <trkpt lat="38.334" lon="15.10075">
        <ele>1.1</ele>
        <time>2018-04-15T15:25:35Z</time>
      </trkpt>
      <trkpt lat="38.33415" lon="15.10066">
        <ele>2.06</ele>
        <time>2018-04-15T15:25:42Z</time>
      </trkpt>
      <trkpt lat="38.33419" lon="15.10063">
        <ele>1.58</ele>
        <time>2018-04-15T15:25:44Z</time>
      </trkpt>
      <trkpt lat="38.33427" lon="15.10057">
        <ele>1.58</ele>
        <time>2018-04-15T15:25:48Z</time>
      </trkpt>
      <trkpt lat="38.33456" lon="15.10039">
        <ele>2.06</ele>
        <time>2018-04-15T15:26:02Z</time>
      </trkpt>
      <trkpt lat="38.33486" lon="15.10021">
        <ele>1.58</ele>
        <time>2018-04-15T15:26:16Z</time>
      </trkpt>
      <trkpt lat="38.33513" lon="15.09998">
        <ele>1.58</ele>
        <time>2018-04-15T15:26:32Z</time>
      </trkpt>
      <trkpt lat="38.3352" lon="15.09993">
        <ele>2.06</ele>
        <time>2018-04-15T15:26:36Z</time>
      </trkpt>
      <trkpt lat="38.33537" lon="15.09981">
        <ele>2.54</ele>
        <time>2018-04-15T15:26:46Z</time>
      </trkpt>
      <trkpt lat="38.33564" lon="15.09969">
        <ele>2.06</ele>
        <time>2018-04-15T15:26:59Z</time>
      </trkpt>
      <trkpt lat="38.33597" lon="15.09948">
        <ele>2.06</ele>
        <time>2018-04-15T15:27:16Z</time>
      </trkpt>
      <trkpt lat="38.33623" lon="15.09934">
        <ele>2.54</ele>
        <time>2018-04-15T15:27:29Z</time>
      </trkpt>
      <trkpt lat="38.33627" lon="15.09932">
        <ele>2.54</ele>
        <time>2018-04-15T15:27:31Z</time>
      </trkpt>
      <trkpt lat="38.33658" lon="15.09913">
        <ele>1.58</ele>
        <time>2018-04-15T15:27:49Z</time>
      </trkpt>
      <trkpt lat="38.33685" lon="15.09896">
        <ele>2.06</ele>
        <time>2018-04-15T15:28:03Z</time>
      </trkpt>
      <trkpt lat="38.33715" lon="15.09874">
        <ele>1.1</ele>
        <time>2018-04-15T15:28:18Z</time>
      </trkpt>
      <trkpt lat="38.33741" lon="15.09855">
        <ele>1.58</ele>
        <time>2018-04-15T15:28:32Z</time>
      </trkpt>
      <trkpt lat="38.33764" lon="15.09836">
        <ele>1.58</ele>
        <time>2018-04-15T15:28:46Z</time>
      </trkpt>
      <trkpt lat="38.33799" lon="15.09815">
        <ele>1.58</ele>
        <time>2018-04-15T15:29:02Z</time>
      </trkpt>
      <trkpt lat="38.33823" lon="15.09799">
        <ele>2.54</ele>
        <time>2018-04-15T15:29:15Z</time>
      </trkpt>
      <trkpt lat="38.33839" lon="15.09787">
        <ele>1.58</ele>
        <time>2018-04-15T15:29:25Z</time>
      </trkpt>
      <trkpt lat="38.3384" lon="15.09785">
        <ele>1.58</ele>
        <time>2018-04-15T15:29:26Z</time>
      </trkpt>
      <trkpt lat="38.33858" lon="15.09779">
        <ele>1.58</ele>
        <time>2018-04-15T15:29:35Z</time>
      </trkpt>
      <trkpt lat="38.33889" lon="15.09755">
        <ele>1.1</ele>
        <time>2018-04-15T15:29:50Z</time>
      </trkpt>
      <trkpt lat="38.33923" lon="15.09734">
        <ele>1.1</ele>
        <time>2018-04-15T15:30:05Z</time>
      </trkpt>
      <trkpt lat="38.33951" lon="15.09716">
        <ele>1.58</ele>
        <time>2018-04-15T15:30:17Z</time>
      </trkpt>
      <trkpt lat="38.33979" lon="15.09696">
        <ele>1.1</ele>
        <time>2018-04-15T15:30:30Z</time>
      </trkpt>
      <trkpt lat="38.34005" lon="15.09672">
        <ele>0.62</ele>
        <time>2018-04-15T15:30:43Z</time>
      </trkpt>
      <trkpt lat="38.34028" lon="15.0965">
        <ele>1.1</ele>
        <time>2018-04-15T15:30:56Z</time>
      </trkpt>
      <trkpt lat="38.34056" lon="15.0963">
        <ele>2.54</ele>
        <time>2018-04-15T15:31:09Z</time>
      </trkpt>
      <trkpt lat="38.34092" lon="15.09607">
        <ele>2.54</ele>
        <time>2018-04-15T15:31:23Z</time>
      </trkpt>
      <trkpt lat="38.3412" lon="15.09586">
        <ele>2.54</ele>
        <time>2018-04-15T15:31:35Z</time>
      </trkpt>
      <trkpt lat="38.34148" lon="15.09567">
        <ele>3.02</ele>
        <time>2018-04-15T15:31:47Z</time>
      </trkpt>
      <trkpt lat="38.34176" lon="15.09547">
        <ele>3.02</ele>
        <time>2018-04-15T15:31:59Z</time>
      </trkpt>
      <trkpt lat="38.34206" lon="15.09527">
        <ele>3.02</ele>
        <time>2018-04-15T15:32:11Z</time>
      </trkpt>
      <trkpt lat="38.34235" lon="15.09505">
        <ele>3.02</ele>
        <time>2018-04-15T15:32:23Z</time>
      </trkpt>
      <trkpt lat="38.34263" lon="15.09484">
        <ele>2.54</ele>
        <time>2018-04-15T15:32:35Z</time>
      </trkpt>
      <trkpt lat="38.34285" lon="15.09467">
        <ele>2.06</ele>
        <time>2018-04-15T15:32:44Z</time>
      </trkpt>
      <trkpt lat="38.34313" lon="15.09445">
        <ele>2.06</ele>
        <time>2018-04-15T15:32:56Z</time>
      </trkpt>
      <trkpt lat="38.34344" lon="15.09423">
        <ele>2.06</ele>
        <time>2018-04-15T15:33:09Z</time>
      </trkpt>
      <trkpt lat="38.34372" lon="15.094">
        <ele>1.58</ele>
        <time>2018-04-15T15:33:21Z</time>
      </trkpt>
      <trkpt lat="38.34406" lon="15.09373">
        <ele>1.1</ele>
        <time>2018-04-15T15:33:35Z</time>
      </trkpt>
      <trkpt lat="38.34447" lon="15.09339">
        <ele>2.06</ele>
        <time>2018-04-15T15:33:52Z</time>
      </trkpt>
      <trkpt lat="38.3448" lon="15.09311">
        <ele>2.54</ele>
        <time>2018-04-15T15:34:06Z</time>
      </trkpt>
      <trkpt lat="38.34515" lon="15.09284">
        <ele>2.54</ele>
        <time>2018-04-15T15:34:20Z</time>
      </trkpt>
      <trkpt lat="38.34552" lon="15.09265">
        <ele>2.54</ele>
        <time>2018-04-15T15:34:32Z</time>
      </trkpt>
      <trkpt lat="38.34593" lon="15.0924">
        <ele>2.54</ele>
        <time>2018-04-15T15:34:46Z</time>
      </trkpt>
      <trkpt lat="38.34623" lon="15.09217">
        <ele>2.06</ele>
        <time>2018-04-15T15:34:57Z</time>
      </trkpt>
      <trkpt lat="38.34664" lon="15.0919">
        <ele>1.58</ele>
        <time>2018-04-15T15:35:11Z</time>
      </trkpt>
      <trkpt lat="38.34709" lon="15.09162">
        <ele>1.58</ele>
        <time>2018-04-15T15:35:26Z</time>
      </trkpt>
      <trkpt lat="38.34764" lon="15.09127">
        <ele>1.1</ele>
        <time>2018-04-15T15:35:44Z</time>
      </trkpt>
      <trkpt lat="38.34801" lon="15.09106">
        <ele>1.58</ele>
        <time>2018-04-15T15:35:56Z</time>
      </trkpt>
      <trkpt lat="38.34836" lon="15.09082">
        <ele>1.58</ele>
        <time>2018-04-15T15:36:08Z</time>
      </trkpt>
      <trkpt lat="38.34872" lon="15.09053">
        <ele>1.1</ele>
        <time>2018-04-15T15:36:21Z</time>
      </trkpt>
      <trkpt lat="38.34902" lon="15.09025">
        <ele>2.06</ele>
        <time>2018-04-15T15:36:33Z</time>
      </trkpt>
      <trkpt lat="38.34937" lon="15.09">
        <ele>2.54</ele>
        <time>2018-04-15T15:36:46Z</time>
      </trkpt>
      <trkpt lat="38.34978" lon="15.08987">
        <ele>2.54</ele>
        <time>2018-04-15T15:36:58Z</time>
      </trkpt>
      <trkpt lat="38.35011" lon="15.08962">
        <ele>2.06</ele>
        <time>2018-04-15T15:37:10Z</time>
      </trkpt>
      <trkpt lat="38.35045" lon="15.08934">
        <ele>3.02</ele>
        <time>2018-04-15T15:37:23Z</time>
      </trkpt>
      <trkpt lat="38.3508" lon="15.08907">
        <ele>3.02</ele>
        <time>2018-04-15T15:37:36Z</time>
      </trkpt>
      <trkpt lat="38.35121" lon="15.08885">
        <ele>3.02</ele>
        <time>2018-04-15T15:37:49Z</time>
      </trkpt>
      <trkpt lat="38.35143" lon="15.08865">
        <ele>3.5</ele>
        <time>2018-04-15T15:37:58Z</time>
      </trkpt>
      <trkpt lat="38.35177" lon="15.08833">
        <ele>3.02</ele>
        <time>2018-04-15T15:38:12Z</time>
      </trkpt>
      <trkpt lat="38.35218" lon="15.08803">
        <ele>3.02</ele>
        <time>2018-04-15T15:38:27Z</time>
      </trkpt>
      <trkpt lat="38.35248" lon="15.08774">
        <ele>3.5</ele>
        <time>2018-04-15T15:38:40Z</time>
      </trkpt>
      <trkpt lat="38.35282" lon="15.08744">
        <ele>3.5</ele>
        <time>2018-04-15T15:38:54Z</time>
      </trkpt>
      <trkpt lat="38.35323" lon="15.08712">
        <ele>3.5</ele>
        <time>2018-04-15T15:39:09Z</time>
      </trkpt>
      <trkpt lat="38.35363" lon="15.08683">
        <ele>2.54</ele>
        <time>2018-04-15T15:39:23Z</time>
      </trkpt>
      <trkpt lat="38.35396" lon="15.08654">
        <ele>2.54</ele>
        <time>2018-04-15T15:39:36Z</time>
      </trkpt>
      <trkpt lat="38.35434" lon="15.08618">
        <ele>3.02</ele>
        <time>2018-04-15T15:39:52Z</time>
      </trkpt>
      <trkpt lat="38.35462" lon="15.0859">
        <ele>2.54</ele>
        <time>2018-04-15T15:40:05Z</time>
      </trkpt>
      <trkpt lat="38.35492" lon="15.08559">
        <ele>3.02</ele>
        <time>2018-04-15T15:40:20Z</time>
      </trkpt>
      <trkpt lat="38.35523" lon="15.08527">
        <ele>3.02</ele>
        <time>2018-04-15T15:40:35Z</time>
      </trkpt>
      <trkpt lat="38.35558" lon="15.08493">
        <ele>3.98</ele>
        <time>2018-04-15T15:40:51Z</time>
      </trkpt>
      <trkpt lat="38.35584" lon="15.08466">
        <ele>3.98</ele>
        <time>2018-04-15T15:41:03Z</time>
      </trkpt>
      <trkpt lat="38.3561" lon="15.08436">
        <ele>3.98</ele>
        <time>2018-04-15T15:41:16Z</time>
      </trkpt>
      <trkpt lat="38.35633" lon="15.08414">
        <ele>3.98</ele>
        <time>2018-04-15T15:41:26Z</time>
      </trkpt>
      <trkpt lat="38.35668" lon="15.08377">
        <ele>3.02</ele>
        <time>2018-04-15T15:41:41Z</time>
      </trkpt>
      <trkpt lat="38.35699" lon="15.08342">
        <ele>1.58</ele>
        <time>2018-04-15T15:41:55Z</time>
      </trkpt>
      <trkpt lat="38.35725" lon="15.08313">
        <ele>1.58</ele>
        <time>2018-04-15T15:42:07Z</time>
      </trkpt>
      <trkpt lat="38.35758" lon="15.08281">
        <ele>1.58</ele>
        <time>2018-04-15T15:42:21Z</time>
      </trkpt>
      <trkpt lat="38.35785" lon="15.08252">
        <ele>1.58</ele>
        <time>2018-04-15T15:42:33Z</time>
      </trkpt>
      <trkpt lat="38.35823" lon="15.08213">
        <ele>2.06</ele>
        <time>2018-04-15T15:42:49Z</time>
      </trkpt>
      <trkpt lat="38.35853" lon="15.0818">
        <ele>2.54</ele>
        <time>2018-04-15T15:43:02Z</time>
      </trkpt>
      <trkpt lat="38.35887" lon="15.08145">
        <ele>2.06</ele>
        <time>2018-04-15T15:43:17Z</time>
      </trkpt>
      <trkpt lat="38.35921" lon="15.08111">
        <ele>2.06</ele>
        <time>2018-04-15T15:43:32Z</time>
      </trkpt>
      <trkpt lat="38.35951" lon="15.08081">
        <ele>2.54</ele>
        <time>2018-04-15T15:43:45Z</time>
      </trkpt>
      <trkpt lat="38.35983" lon="15.08044">
        <ele>3.02</ele>
        <time>2018-04-15T15:44:00Z</time>
      </trkpt>
      <trkpt lat="38.36012" lon="15.08011">
        <ele>3.02</ele>
        <time>2018-04-15T15:44:14Z</time>
      </trkpt>
      <trkpt lat="38.36041" lon="15.0798">
        <ele>2.54</ele>
        <time>2018-04-15T15:44:27Z</time>
      </trkpt>
      <trkpt lat="38.36069" lon="15.07949">
        <ele>2.54</ele>
        <time>2018-04-15T15:44:40Z</time>
      </trkpt>
      <trkpt lat="38.36101" lon="15.07913">
        <ele>2.54</ele>
        <time>2018-04-15T15:44:55Z</time>
      </trkpt>
      <trkpt lat="38.36136" lon="15.07875">
        <ele>3.5</ele>
        <time>2018-04-15T15:45:11Z</time>
      </trkpt>
      <trkpt lat="38.36174" lon="15.07834">
        <ele>3.5</ele>
        <time>2018-04-15T15:45:27Z</time>
      </trkpt>
      <trkpt lat="38.36217" lon="15.07782">
        <ele>2.54</ele>
        <time>2018-04-15T15:45:46Z</time>
      </trkpt>
      <trkpt lat="38.36248" lon="15.07744">
        <ele>2.54</ele>
        <time>2018-04-15T15:46:00Z</time>
      </trkpt>
      <trkpt lat="38.36278" lon="15.07708">
        <ele>3.5</ele>
        <time>2018-04-15T15:46:14Z</time>
      </trkpt>
      <trkpt lat="38.36311" lon="15.07669">
        <ele>3.98</ele>
        <time>2018-04-15T15:46:29Z</time>
      </trkpt>
      <trkpt lat="38.36344" lon="15.07631">
        <ele>3.98</ele>
        <time>2018-04-15T15:46:44Z</time>
      </trkpt>
      <trkpt lat="38.36373" lon="15.07597">
        <ele>3.98</ele>
        <time>2018-04-15T15:46:57Z</time>
      </trkpt>
      <trkpt lat="38.36403" lon="15.07552">
        <ele>3.98</ele>
        <time>2018-04-15T15:47:12Z</time>
      </trkpt>
      <trkpt lat="38.36427" lon="15.07515">
        <ele>4.46</ele>
        <time>2018-04-15T15:47:24Z</time>
      </trkpt>
      <trkpt lat="38.3646" lon="15.07465">
        <ele>4.94</ele>
        <time>2018-04-15T15:47:40Z</time>
      </trkpt>
      <trkpt lat="38.3649" lon="15.07418">
        <ele>4.46</ele>
        <time>2018-04-15T15:47:55Z</time>
      </trkpt>
      <trkpt lat="38.36527" lon="15.07364">
        <ele>3.98</ele>
        <time>2018-04-15T15:48:12Z</time>
      </trkpt>
      <trkpt lat="38.36559" lon="15.07314">
        <ele>4.94</ele>
        <time>2018-04-15T15:48:27Z</time>
      </trkpt>
      <trkpt lat="38.36583" lon="15.07272">
        <ele>4.94</ele>
        <time>2018-04-15T15:48:39Z</time>
      </trkpt>
      <trkpt lat="38.36615" lon="15.07215">
        <ele>4.46</ele>
        <time>2018-04-15T15:48:55Z</time>
      </trkpt>
      <trkpt lat="38.36651" lon="15.07173">
        <ele>3.98</ele>
        <time>2018-04-15T15:49:09Z</time>
      </trkpt>
      <trkpt lat="38.36679" lon="15.07141">
        <ele>4.46</ele>
        <time>2018-04-15T15:49:20Z</time>
      </trkpt>
      <trkpt lat="38.36712" lon="15.07088">
        <ele>3.98</ele>
        <time>2018-04-15T15:49:35Z</time>
      </trkpt>
      <trkpt lat="38.36736" lon="15.07045">
        <ele>3.98</ele>
        <time>2018-04-15T15:49:47Z</time>
      </trkpt>
      <trkpt lat="38.36763" lon="15.06992">
        <ele>4.94</ele>
        <time>2018-04-15T15:50:01Z</time>
      </trkpt>
      <trkpt lat="38.36792" lon="15.06936">
        <ele>4.46</ele>
        <time>2018-04-15T15:50:16Z</time>
      </trkpt>
      <trkpt lat="38.36817" lon="15.06887">
        <ele>4.46</ele>
        <time>2018-04-15T15:50:29Z</time>
      </trkpt>
      <trkpt lat="38.36844" lon="15.06835">
        <ele>3.98</ele>
        <time>2018-04-15T15:50:43Z</time>
      </trkpt>
      <trkpt lat="38.36866" lon="15.06795">
        <ele>4.46</ele>
        <time>2018-04-15T15:50:54Z</time>
      </trkpt>
      <trkpt lat="38.36892" lon="15.06748">
        <ele>3.98</ele>
        <time>2018-04-15T15:51:07Z</time>
      </trkpt>
      <trkpt lat="38.36915" lon="15.06702">
        <ele>3.98</ele>
        <time>2018-04-15T15:51:19Z</time>
      </trkpt>
      <trkpt lat="38.36949" lon="15.06638">
        <ele>4.46</ele>
        <time>2018-04-15T15:51:36Z</time>
      </trkpt>
      <trkpt lat="38.36975" lon="15.06594">
        <ele>4.94</ele>
        <time>2018-04-15T15:51:48Z</time>
      </trkpt>
      <trkpt lat="38.36999" lon="15.06549">
        <ele>4.94</ele>
        <time>2018-04-15T15:52:00Z</time>
      </trkpt>
      <trkpt lat="38.3702" lon="15.06509">
        <ele>4.46</ele>
        <time>2018-04-15T15:52:11Z</time>
      </trkpt>
      <trkpt lat="38.37048" lon="15.06459">
        <ele>4.94</ele>
        <time>2018-04-15T15:52:25Z</time>
      </trkpt>
      <trkpt lat="38.37069" lon="15.0642">
        <ele>4.46</ele>
        <time>2018-04-15T15:52:36Z</time>
      </trkpt>
      <trkpt lat="38.37093" lon="15.06377">
        <ele>4.94</ele>
        <time>2018-04-15T15:52:48Z</time>
      </trkpt>
      <trkpt lat="38.37117" lon="15.06334">
        <ele>3.5</ele>
        <time>2018-04-15T15:53:00Z</time>
      </trkpt>
      <trkpt lat="38.3714" lon="15.06293">
        <ele>3.5</ele>
        <time>2018-04-15T15:53:11Z</time>
      </trkpt>
      <trkpt lat="38.37162" lon="15.06253">
        <ele>3.5</ele>
        <time>2018-04-15T15:53:22Z</time>
      </trkpt>
      <trkpt lat="38.37193" lon="15.06199">
        <ele>3.98</ele>
        <time>2018-04-15T15:53:37Z</time>
      </trkpt>
      <trkpt lat="38.37222" lon="15.06153">
        <ele>3.5</ele>
        <time>2018-04-15T15:53:50Z</time>
      </trkpt>
      <trkpt lat="38.37251" lon="15.06102">
        <ele>3.98</ele>
        <time>2018-04-15T15:54:04Z</time>
      </trkpt>
      <trkpt lat="38.3728" lon="15.06051">
        <ele>3.98</ele>
        <time>2018-04-15T15:54:18Z</time>
      </trkpt>
      <trkpt lat="38.373" lon="15.06016">
        <ele>3.98</ele>
        <time>2018-04-15T15:54:28Z</time>
      </trkpt>
      <trkpt lat="38.37326" lon="15.0597">
        <ele>3.98</ele>
        <time>2018-04-15T15:54:41Z</time>
      </trkpt>
      <trkpt lat="38.37354" lon="15.05925">
        <ele>3.98</ele>
        <time>2018-04-15T15:54:54Z</time>
      </trkpt>
      <trkpt lat="38.37377" lon="15.05883">
        <ele>3.5</ele>
        <time>2018-04-15T15:55:06Z</time>
      </trkpt>
      <trkpt lat="38.37399" lon="15.0584">
        <ele>3.98</ele>
        <time>2018-04-15T15:55:18Z</time>
      </trkpt>
      <trkpt lat="38.37425" lon="15.05794">
        <ele>3.5</ele>
        <time>2018-04-15T15:55:31Z</time>
      </trkpt>
      <trkpt lat="38.3745" lon="15.05756">
        <ele>3.5</ele>
        <time>2018-04-15T15:55:42Z</time>
      </trkpt>
      <trkpt lat="38.37476" lon="15.05714">
        <ele>3.98</ele>
        <time>2018-04-15T15:55:54Z</time>
      </trkpt>
      <trkpt lat="38.37498" lon="15.05676">
        <ele>3.98</ele>
        <time>2018-04-15T15:56:05Z</time>
      </trkpt>
      <trkpt lat="38.37517" lon="15.05641">
        <ele>3.5</ele>
        <time>2018-04-15T15:56:15Z</time>
      </trkpt>
      <trkpt lat="38.37542" lon="15.056">
        <ele>3.98</ele>
        <time>2018-04-15T15:56:27Z</time>
      </trkpt>
      <trkpt lat="38.37568" lon="15.05561">
        <ele>4.46</ele>
        <time>2018-04-15T15:56:39Z</time>
      </trkpt>
      <trkpt lat="38.37592" lon="15.0552">
        <ele>4.46</ele>
        <time>2018-04-15T15:56:51Z</time>
      </trkpt>
      <trkpt lat="38.37614" lon="15.05482">
        <ele>4.46</ele>
        <time>2018-04-15T15:57:02Z</time>
      </trkpt>
      <trkpt lat="38.37624" lon="15.05465">
        <ele>4.46</ele>
        <time>2018-04-15T15:57:07Z</time>
      </trkpt>
      <trkpt lat="38.3765" lon="15.05425">
        <ele>4.46</ele>
        <time>2018-04-15T15:57:19Z</time>
      </trkpt>
      <trkpt lat="38.37668" lon="15.05393">
        <ele>4.46</ele>
        <time>2018-04-15T15:57:28Z</time>
      </trkpt>
      <trkpt lat="38.37694" lon="15.05358">
        <ele>4.94</ele>
        <time>2018-04-15T15:57:39Z</time>
      </trkpt>
      <trkpt lat="38.3772" lon="15.05317">
        <ele>4.94</ele>
        <time>2018-04-15T15:57:51Z</time>
      </trkpt>
      <trkpt lat="38.37741" lon="15.05278">
        <ele>4.94</ele>
        <time>2018-04-15T15:58:02Z</time>
      </trkpt>
      <trkpt lat="38.37766" lon="15.05235">
        <ele>4.94</ele>
        <time>2018-04-15T15:58:14Z</time>
      </trkpt>
      <trkpt lat="38.37783" lon="15.05206">
        <ele>3.98</ele>
        <time>2018-04-15T15:58:22Z</time>
      </trkpt>
      <trkpt lat="38.37807" lon="15.05168">
        <ele>3.98</ele>
        <time>2018-04-15T15:58:33Z</time>
      </trkpt>
      <trkpt lat="38.37832" lon="15.05128">
        <ele>4.46</ele>
        <time>2018-04-15T15:58:44Z</time>
      </trkpt>
      <trkpt lat="38.37858" lon="15.05089">
        <ele>4.46</ele>
        <time>2018-04-15T15:58:55Z</time>
      </trkpt>
      <trkpt lat="38.37887" lon="15.05041">
        <ele>4.46</ele>
        <time>2018-04-15T15:59:08Z</time>
      </trkpt>
      <trkpt lat="38.37916" lon="15.04996">
        <ele>4.46</ele>
        <time>2018-04-15T15:59:21Z</time>
      </trkpt>
      <trkpt lat="38.3795" lon="15.04953">
        <ele>4.94</ele>
        <time>2018-04-15T15:59:34Z</time>
      </trkpt>
      <trkpt lat="38.37982" lon="15.04914">
        <ele>4.94</ele>
        <time>2018-04-15T15:59:46Z</time>
      </trkpt>
      <trkpt lat="38.38014" lon="15.04875">
        <ele>5.42</ele>
        <time>2018-04-15T15:59:58Z</time>
      </trkpt>
      <trkpt lat="38.3805" lon="15.04826">
        <ele>4.46</ele>
        <time>2018-04-15T16:00:12Z</time>
      </trkpt>
      <trkpt lat="38.38079" lon="15.04783">
        <ele>4.46</ele>
        <time>2018-04-15T16:00:24Z</time>
      </trkpt>
      <trkpt lat="38.38121" lon="15.04731">
        <ele>4.94</ele>
        <time>2018-04-15T16:00:40Z</time>
      </trkpt>
      <trkpt lat="38.38154" lon="15.04682">
        <ele>5.42</ele>
        <time>2018-04-15T16:00:54Z</time>
      </trkpt>
      <trkpt lat="38.38183" lon="15.04641">
        <ele>4.94</ele>
        <time>2018-04-15T16:01:06Z</time>
      </trkpt>
      <trkpt lat="38.38208" lon="15.04603">
        <ele>4.94</ele>
        <time>2018-04-15T16:01:17Z</time>
      </trkpt>
      <trkpt lat="38.38233" lon="15.04567">
        <ele>3.98</ele>
        <time>2018-04-15T16:01:28Z</time>
      </trkpt>
      <trkpt lat="38.38263" lon="15.04528">
        <ele>3.98</ele>
        <time>2018-04-15T16:01:40Z</time>
      </trkpt>
      <trkpt lat="38.38284" lon="15.04495">
        <ele>3.98</ele>
        <time>2018-04-15T16:01:50Z</time>
      </trkpt>
      <trkpt lat="38.38305" lon="15.04465">
        <ele>3.5</ele>
        <time>2018-04-15T16:01:59Z</time>
      </trkpt>
      <trkpt lat="38.38335" lon="15.04423">
        <ele>3.5</ele>
        <time>2018-04-15T16:02:12Z</time>
      </trkpt>
      <trkpt lat="38.38363" lon="15.04382">
        <ele>3.02</ele>
        <time>2018-04-15T16:02:24Z</time>
      </trkpt>
      <trkpt lat="38.38397" lon="15.04339">
        <ele>3.02</ele>
        <time>2018-04-15T16:02:37Z</time>
      </trkpt>
      <trkpt lat="38.3842" lon="15.04306">
        <ele>2.54</ele>
        <time>2018-04-15T16:02:47Z</time>
      </trkpt>
      <trkpt lat="38.38454" lon="15.04258">
        <ele>3.5</ele>
        <time>2018-04-15T16:03:01Z</time>
      </trkpt>
      <trkpt lat="38.38483" lon="15.04213">
        <ele>3.98</ele>
        <time>2018-04-15T16:03:14Z</time>
      </trkpt>
      <trkpt lat="38.38512" lon="15.0417">
        <ele>3.98</ele>
        <time>2018-04-15T16:03:26Z</time>
      </trkpt>
      <trkpt lat="38.38535" lon="15.04136">
        <ele>3.5</ele>
        <time>2018-04-15T16:03:36Z</time>
      </trkpt>
      <trkpt lat="38.38569" lon="15.04089">
        <ele>3.5</ele>
        <time>2018-04-15T16:03:50Z</time>
      </trkpt>
      <trkpt lat="38.38602" lon="15.04041">
        <ele>3.5</ele>
        <time>2018-04-15T16:04:04Z</time>
      </trkpt>
      <trkpt lat="38.38639" lon="15.03991">
        <ele>3.98</ele>
        <time>2018-04-15T16:04:19Z</time>
      </trkpt>
      <trkpt lat="38.38676" lon="15.03935">
        <ele>4.46</ele>
        <time>2018-04-15T16:04:35Z</time>
      </trkpt>
      <trkpt lat="38.38698" lon="15.03903">
        <ele>4.46</ele>
        <time>2018-04-15T16:04:44Z</time>
      </trkpt>
      <trkpt lat="38.38725" lon="15.0386">
        <ele>3.98</ele>
        <time>2018-04-15T16:04:56Z</time>
      </trkpt>
      <trkpt lat="38.38749" lon="15.03819">
        <ele>3.98</ele>
        <time>2018-04-15T16:05:07Z</time>
      </trkpt>
      <trkpt lat="38.3878" lon="15.03774">
        <ele>4.46</ele>
        <time>2018-04-15T16:05:20Z</time>
      </trkpt>
      <trkpt lat="38.38812" lon="15.03726">
        <ele>4.46</ele>
        <time>2018-04-15T16:05:34Z</time>
      </trkpt>
      <trkpt lat="38.38851" lon="15.03666">
        <ele>3.98</ele>
        <time>2018-04-15T16:05:52Z</time>
      </trkpt>
      <trkpt lat="38.38887" lon="15.0362">
        <ele>3.5</ele>
        <time>2018-04-15T16:06:07Z</time>
      </trkpt>
      <trkpt lat="38.38916" lon="15.03575">
        <ele>3.98</ele>
        <time>2018-04-15T16:06:20Z</time>
      </trkpt>
      <trkpt lat="38.38947" lon="15.03521">
        <ele>3.5</ele>
        <time>2018-04-15T16:06:34Z</time>
      </trkpt>
      <trkpt lat="38.38971" lon="15.0348">
        <ele>3.02</ele>
        <time>2018-04-15T16:06:45Z</time>
      </trkpt>
      <trkpt lat="38.38997" lon="15.03421">
        <ele>2.54</ele>
        <time>2018-04-15T16:07:00Z</time>
      </trkpt>
      <trkpt lat="38.39022" lon="15.03368">
        <ele>2.54</ele>
        <time>2018-04-15T16:07:13Z</time>
      </trkpt>
      <trkpt lat="38.39048" lon="15.03313">
        <ele>3.02</ele>
        <time>2018-04-15T16:07:27Z</time>
      </trkpt>
      <trkpt lat="38.39074" lon="15.03261">
        <ele>3.02</ele>
        <time>2018-04-15T16:07:40Z</time>
      </trkpt>
      <trkpt lat="38.39105" lon="15.03197">
        <ele>2.54</ele>
        <time>2018-04-15T16:07:56Z</time>
      </trkpt>
      <trkpt lat="38.39133" lon="15.03137">
        <ele>3.02</ele>
        <time>2018-04-15T16:08:11Z</time>
      </trkpt>
      <trkpt lat="38.39161" lon="15.03082">
        <ele>3.02</ele>
        <time>2018-04-15T16:08:25Z</time>
      </trkpt>
      <trkpt lat="38.3919" lon="15.03021">
        <ele>3.5</ele>
        <time>2018-04-15T16:08:42Z</time>
      </trkpt>
      <trkpt lat="38.39213" lon="15.02975">
        <ele>3.02</ele>
        <time>2018-04-15T16:08:57Z</time>
      </trkpt>
      <trkpt lat="38.39237" lon="15.02938">
        <ele>3.02</ele>
        <time>2018-04-15T16:09:11Z</time>
      </trkpt>
      <trkpt lat="38.3925" lon="15.0292">
        <ele>3.02</ele>
        <time>2018-04-15T16:09:19Z</time>
      </trkpt>
      <trkpt lat="38.39271" lon="15.02885">
        <ele>3.02</ele>
        <time>2018-04-15T16:09:33Z</time>
      </trkpt>
      <trkpt lat="38.3929" lon="15.02853">
        <ele>3.02</ele>
        <time>2018-04-15T16:09:47Z</time>
      </trkpt>
      <trkpt lat="38.39317" lon="15.02812">
        <ele>2.54</ele>
        <time>2018-04-15T16:10:05Z</time>
      </trkpt>
      <trkpt lat="38.39344" lon="15.02775">
        <ele>2.54</ele>
        <time>2018-04-15T16:10:22Z</time>
      </trkpt>
      <trkpt lat="38.39366" lon="15.02743">
        <ele>2.54</ele>
        <time>2018-04-15T16:10:38Z</time>
      </trkpt>
      <trkpt lat="38.39394" lon="15.02708">
        <ele>3.02</ele>
        <time>2018-04-15T16:10:56Z</time>
      </trkpt>
      <trkpt lat="38.39415" lon="15.02679">
        <ele>3.5</ele>
        <time>2018-04-15T16:11:11Z</time>
      </trkpt>
      <trkpt lat="38.39444" lon="15.02645">
        <ele>3.5</ele>
        <time>2018-04-15T16:11:27Z</time>
      </trkpt>
      <trkpt lat="38.39472" lon="15.02609">
        <ele>4.94</ele>
        <time>2018-04-15T16:11:42Z</time>
      </trkpt>
      <trkpt lat="38.39504" lon="15.02572">
        <ele>4.94</ele>
        <time>2018-04-15T16:12:00Z</time>
      </trkpt>
      <trkpt lat="38.39527" lon="15.02546">
        <ele>5.42</ele>
        <time>2018-04-15T16:12:16Z</time>
      </trkpt>
      <trkpt lat="38.39551" lon="15.02515">
        <ele>4.46</ele>
        <time>2018-04-15T16:12:32Z</time>
      </trkpt>
      <trkpt lat="38.39574" lon="15.02485">
        <ele>3.98</ele>
        <time>2018-04-15T16:12:47Z</time>
      </trkpt>
      <trkpt lat="38.39598" lon="15.02451">
        <ele>3.5</ele>
        <time>2018-04-15T16:13:02Z</time>
      </trkpt>
      <trkpt lat="38.39625" lon="15.02409">
        <ele>3.02</ele>
        <time>2018-04-15T16:13:18Z</time>
      </trkpt>
      <trkpt lat="38.39654" lon="15.02363">
        <ele>2.06</ele>
        <time>2018-04-15T16:13:35Z</time>
      </trkpt>
      <trkpt lat="38.39682" lon="15.02313">
        <ele>1.1</ele>
        <time>2018-04-15T16:13:51Z</time>
      </trkpt>
      <trkpt lat="38.39709" lon="15.0226">
        <ele>1.1</ele>
        <time>2018-04-15T16:14:08Z</time>
      </trkpt>
      <trkpt lat="38.39736" lon="15.02222">
        <ele>1.1</ele>
        <time>2018-04-15T16:14:23Z</time>
      </trkpt>
      <trkpt lat="38.3976" lon="15.02181">
        <ele>1.1</ele>
        <time>2018-04-15T16:14:40Z</time>
      </trkpt>
      <trkpt lat="38.3978" lon="15.02149">
        <ele>2.06</ele>
        <time>2018-04-15T16:14:57Z</time>
      </trkpt>
      <trkpt lat="38.39807" lon="15.02122">
        <ele>2.54</ele>
        <time>2018-04-15T16:15:16Z</time>
      </trkpt>
      <trkpt lat="38.39823" lon="15.02096">
        <ele>2.54</ele>
        <time>2018-04-15T16:15:29Z</time>
      </trkpt>
      <trkpt lat="38.39843" lon="15.02061">
        <ele>2.06</ele>
        <time>2018-04-15T16:15:46Z</time>
      </trkpt>
      <trkpt lat="38.39869" lon="15.02016">
        <ele>1.58</ele>
        <time>2018-04-15T16:16:04Z</time>
      </trkpt>
      <trkpt lat="38.39894" lon="15.01969">
        <ele>2.06</ele>
        <time>2018-04-15T16:16:21Z</time>
      </trkpt>
      <trkpt lat="38.39923" lon="15.01922">
        <ele>1.58</ele>
        <time>2018-04-15T16:16:39Z</time>
      </trkpt>
      <trkpt lat="38.39945" lon="15.01893">
        <ele>2.06</ele>
        <time>2018-04-15T16:16:53Z</time>
      </trkpt>
      <trkpt lat="38.3997" lon="15.0187">
        <ele>2.06</ele>
        <time>2018-04-15T16:17:07Z</time>
      </trkpt>
      <trkpt lat="38.40009" lon="15.01833">
        <ele>2.54</ele>
        <time>2018-04-15T16:17:26Z</time>
      </trkpt>
      <trkpt lat="38.40046" lon="15.01797">
        <ele>2.06</ele>
        <time>2018-04-15T16:17:43Z</time>
      </trkpt>
      <trkpt lat="38.40084" lon="15.01758">
        <ele>2.54</ele>
        <time>2018-04-15T16:18:00Z</time>
      </trkpt>
      <trkpt lat="38.40124" lon="15.01706">
        <ele>3.5</ele>
        <time>2018-04-15T16:18:21Z</time>
      </trkpt>
      <trkpt lat="38.40162" lon="15.01657">
        <ele>2.06</ele>
        <time>2018-04-15T16:18:42Z</time>
      </trkpt>
      <trkpt lat="38.40199" lon="15.01617">
        <ele>3.02</ele>
        <time>2018-04-15T16:19:00Z</time>
      </trkpt>
      <trkpt lat="38.4023" lon="15.01585">
        <ele>3.5</ele>
        <time>2018-04-15T16:19:16Z</time>
      </trkpt>
      <trkpt lat="38.4026" lon="15.01558">
        <ele>3.5</ele>
        <time>2018-04-15T16:19:30Z</time>
      </trkpt>
      <trkpt lat="38.40291" lon="15.01523">
        <ele>2.54</ele>
        <time>2018-04-15T16:19:45Z</time>
      </trkpt>
      <trkpt lat="38.4032" lon="15.01485">
        <ele>2.06</ele>
        <time>2018-04-15T16:20:00Z</time>
      </trkpt>
      <trkpt lat="38.40351" lon="15.0144">
        <ele>1.58</ele>
        <time>2018-04-15T16:20:16Z</time>
      </trkpt>
      <trkpt lat="38.40383" lon="15.01389">
        <ele>1.58</ele>
        <time>2018-04-15T16:20:34Z</time>
      </trkpt>
      <trkpt lat="38.40411" lon="15.01337">
        <ele>1.1</ele>
        <time>2018-04-15T16:20:51Z</time>
      </trkpt>
      <trkpt lat="38.4044" lon="15.013">
        <ele>1.58</ele>
        <time>2018-04-15T16:21:05Z</time>
      </trkpt>
      <trkpt lat="38.40481" lon="15.01246">
        <ele>1.58</ele>
        <time>2018-04-15T16:21:25Z</time>
      </trkpt>
      <trkpt lat="38.40525" lon="15.01182">
        <ele>1.58</ele>
        <time>2018-04-15T16:21:48Z</time>
      </trkpt>
      <trkpt lat="38.40559" lon="15.01138">
        <ele>1.58</ele>
        <time>2018-04-15T16:22:04Z</time>
      </trkpt>
      <trkpt lat="38.40584" lon="15.01098">
        <ele>1.1</ele>
        <time>2018-04-15T16:22:19Z</time>
      </trkpt>
      <trkpt lat="38.40606" lon="15.01061">
        <ele>2.54</ele>
        <time>2018-04-15T16:22:34Z</time>
      </trkpt>
      <trkpt lat="38.40626" lon="15.01031">
        <ele>2.54</ele>
        <time>2018-04-15T16:22:49Z</time>
      </trkpt>
      <trkpt lat="38.40657" lon="15.00989">
        <ele>2.06</ele>
        <time>2018-04-15T16:23:05Z</time>
      </trkpt>
      <trkpt lat="38.407" lon="15.00932">
        <ele>2.06</ele>
        <time>2018-04-15T16:23:25Z</time>
      </trkpt>
      <trkpt lat="38.40734" lon="15.00884">
        <ele>2.06</ele>
        <time>2018-04-15T16:23:42Z</time>
      </trkpt>
      <trkpt lat="38.4074" lon="15.00876">
        <ele>2.54</ele>
        <time>2018-04-15T16:23:45Z</time>
      </trkpt>
      <trkpt lat="38.40749" lon="15.00852">
        <ele>2.54</ele>
        <time>2018-04-15T16:23:59Z</time>
      </trkpt>
      <trkpt lat="38.40772" lon="15.00817">
        <ele>2.54</ele>
        <time>2018-04-15T16:24:13Z</time>
      </trkpt>
      <trkpt lat="38.40813" lon="15.00761">
        <ele>2.54</ele>
        <time>2018-04-15T16:24:34Z</time>
      </trkpt>
      <trkpt lat="38.40837" lon="15.00722">
        <ele>2.06</ele>
        <time>2018-04-15T16:24:48Z</time>
      </trkpt>
      <trkpt lat="38.40865" lon="15.00679">
        <ele>2.54</ele>
        <time>2018-04-15T16:25:03Z</time>
      </trkpt>
      <trkpt lat="38.40896" lon="15.00625">
        <ele>2.54</ele>
        <time>2018-04-15T16:25:21Z</time>
      </trkpt>
      <trkpt lat="38.40922" lon="15.00585">
        <ele>2.54</ele>
        <time>2018-04-15T16:25:38Z</time>
      </trkpt>
      <trkpt lat="38.40951" lon="15.00548">
        <ele>1.58</ele>
        <time>2018-04-15T16:25:55Z</time>
      </trkpt>
      <trkpt lat="38.40975" lon="15.00515">
        <ele>1.58</ele>
        <time>2018-04-15T16:26:10Z</time>
      </trkpt>
      <trkpt lat="38.41" lon="15.00478">
        <ele>1.1</ele>
        <time>2018-04-15T16:26:28Z</time>
      </trkpt>
      <trkpt lat="38.4102" lon="15.00442">
        <ele>2.06</ele>
        <time>2018-04-15T16:26:43Z</time>
      </trkpt>
      <trkpt lat="38.41034" lon="15.00406">
        <ele>3.02</ele>
        <time>2018-04-15T16:26:59Z</time>
      </trkpt>
      <trkpt lat="38.41059" lon="15.00378">
        <ele>2.06</ele>
        <time>2018-04-15T16:27:15Z</time>
      </trkpt>
      <trkpt lat="38.41103" lon="15.00342">
        <ele>1.58</ele>
        <time>2018-04-15T16:27:33Z</time>
      </trkpt>
      <trkpt lat="38.41129" lon="15.00291">
        <ele>2.54</ele>
        <time>2018-04-15T16:27:51Z</time>
      </trkpt>
      <trkpt lat="38.41151" lon="15.00249">
        <ele>3.02</ele>
        <time>2018-04-15T16:28:08Z</time>
      </trkpt>
      <trkpt lat="38.41182" lon="15.00199">
        <ele>2.54</ele>
        <time>2018-04-15T16:28:27Z</time>
      </trkpt>
      <trkpt lat="38.41212" lon="15.00153">
        <ele>1.58</ele>
        <time>2018-04-15T16:28:44Z</time>
      </trkpt>
      <trkpt lat="38.41249" lon="15.00106">
        <ele>1.58</ele>
        <time>2018-04-15T16:29:02Z</time>
      </trkpt>
      <trkpt lat="38.41289" lon="15.00045">
        <ele>1.1</ele>
        <time>2018-04-15T16:29:22Z</time>
      </trkpt>
      <trkpt lat="38.41334" lon="14.99983">
        <ele>1.58</ele>
        <time>2018-04-15T16:29:44Z</time>
      </trkpt>
      <trkpt lat="38.41369" lon="14.99933">
        <ele>2.06</ele>
        <time>2018-04-15T16:30:03Z</time>
      </trkpt>
      <trkpt lat="38.41396" lon="14.99882">
        <ele>1.58</ele>
        <time>2018-04-15T16:30:19Z</time>
      </trkpt>
      <trkpt lat="38.41413" lon="14.9984">
        <ele>2.54</ele>
        <time>2018-04-15T16:30:34Z</time>
      </trkpt>
      <trkpt lat="38.41436" lon="14.99813">
        <ele>3.02</ele>
        <time>2018-04-15T16:30:44Z</time>
      </trkpt>
      <trkpt lat="38.41466" lon="14.9983">
        <ele>3.5</ele>
        <time>2018-04-15T16:30:55Z</time>
      </trkpt>
      <trkpt lat="38.41493" lon="14.99861">
        <ele>3.02</ele>
        <time>2018-04-15T16:31:09Z</time>
      </trkpt>
      <trkpt lat="38.41528" lon="14.99895">
        <ele>3.02</ele>
        <time>2018-04-15T16:31:25Z</time>
      </trkpt>
      <trkpt lat="38.41575" lon="14.9993">
        <ele>3.02</ele>
        <time>2018-04-15T16:31:44Z</time>
      </trkpt>
      <trkpt lat="38.41622" lon="14.99956">
        <ele>3.5</ele>
        <time>2018-04-15T16:32:04Z</time>
      </trkpt>
      <trkpt lat="38.41659" lon="14.99946">
        <ele>3.02</ele>
        <time>2018-04-15T16:32:23Z</time>
      </trkpt>
      <trkpt lat="38.41669" lon="14.99906">
        <ele>3.98</ele>
        <time>2018-04-15T16:32:38Z</time>
      </trkpt>
      <trkpt lat="38.41666" lon="14.99863">
        <ele>3.5</ele>
        <time>2018-04-15T16:32:55Z</time>
      </trkpt>
      <trkpt lat="38.41644" lon="14.99836">
        <ele>2.54</ele>
        <time>2018-04-15T16:33:15Z</time>
      </trkpt>
      <trkpt lat="38.4162" lon="14.99817">
        <ele>3.02</ele>
        <time>2018-04-15T16:33:37Z</time>
      </trkpt>
      <trkpt lat="38.41628" lon="14.99771">
        <ele>4.46</ele>
        <time>2018-04-15T16:33:56Z</time>
      </trkpt>
      <trkpt lat="38.41632" lon="14.99715">
        <ele>4.94</ele>
        <time>2018-04-15T16:34:16Z</time>
      </trkpt>
      <trkpt lat="38.41628" lon="14.9968">
        <ele>4.46</ele>
        <time>2018-04-15T16:34:31Z</time>
      </trkpt>
      <trkpt lat="38.41601" lon="14.9966">
        <ele>3.98</ele>
        <time>2018-04-15T16:34:50Z</time>
      </trkpt>
      <trkpt lat="38.41575" lon="14.99644">
        <ele>4.46</ele>
        <time>2018-04-15T16:35:08Z</time>
      </trkpt>
      <trkpt lat="38.41552" lon="14.9962">
        <ele>3.5</ele>
        <time>2018-04-15T16:35:27Z</time>
      </trkpt>
      <trkpt lat="38.4153" lon="14.9959">
        <ele>3.98</ele>
        <time>2018-04-15T16:35:48Z</time>
      </trkpt>
      <trkpt lat="38.41512" lon="14.99552">
        <ele>4.46</ele>
        <time>2018-04-15T16:36:10Z</time>
      </trkpt>
      <trkpt lat="38.41497" lon="14.99515">
        <ele>4.46</ele>
        <time>2018-04-15T16:36:30Z</time>
      </trkpt>
      <trkpt lat="38.41479" lon="14.99485">
        <ele>3.5</ele>
        <time>2018-04-15T16:36:50Z</time>
      </trkpt>
      <trkpt lat="38.41455" lon="14.99452">
        <ele>3.5</ele>
        <time>2018-04-15T16:37:13Z</time>
      </trkpt>
      <trkpt lat="38.41426" lon="14.99417">
        <ele>2.06</ele>
        <time>2018-04-15T16:37:38Z</time>
      </trkpt>
      <trkpt lat="38.41419" lon="14.99383">
        <ele>3.02</ele>
        <time>2018-04-15T16:37:56Z</time>
      </trkpt>
      <trkpt lat="38.41415" lon="14.9933">
        <ele>4.46</ele>
        <time>2018-04-15T16:38:21Z</time>
      </trkpt>
      <trkpt lat="38.41417" lon="14.99289">
        <ele>3.98</ele>
        <time>2018-04-15T16:38:39Z</time>
      </trkpt>
      <trkpt lat="38.41421" lon="14.99246">
        <ele>4.46</ele>
        <time>2018-04-15T16:38:58Z</time>
      </trkpt>
      <trkpt lat="38.41426" lon="14.99199">
        <ele>4.46</ele>
        <time>2018-04-15T16:39:19Z</time>
      </trkpt>
      <trkpt lat="38.41442" lon="14.99155">
        <ele>3.02</ele>
        <time>2018-04-15T16:39:40Z</time>
      </trkpt>
      <trkpt lat="38.41451" lon="14.99109">
        <ele>3.98</ele>
        <time>2018-04-15T16:40:02Z</time>
      </trkpt>
      <trkpt lat="38.41454" lon="14.99069">
        <ele>3.98</ele>
        <time>2018-04-15T16:40:22Z</time>
      </trkpt>
      <trkpt lat="38.41457" lon="14.99029">
        <ele>3.98</ele>
        <time>2018-04-15T16:40:43Z</time>
      </trkpt>
      <trkpt lat="38.41458" lon="14.9898">
        <ele>4.46</ele>
        <time>2018-04-15T16:41:07Z</time>
      </trkpt>
      <trkpt lat="38.41461" lon="14.98941">
        <ele>4.46</ele>
        <time>2018-04-15T16:41:24Z</time>
      </trkpt>
      <trkpt lat="38.4147" lon="14.98891">
        <ele>5.42</ele>
        <time>2018-04-15T16:41:46Z</time>
      </trkpt>
      <trkpt lat="38.41482" lon="14.98846">
        <ele>5.42</ele>
        <time>2018-04-15T16:42:07Z</time>
      </trkpt>
      <trkpt lat="38.41487" lon="14.98795">
        <ele>5.42</ele>
        <time>2018-04-15T16:42:29Z</time>
      </trkpt>
      <trkpt lat="38.41494" lon="14.98756">
        <ele>6.39</ele>
        <time>2018-04-15T16:42:47Z</time>
      </trkpt>
      <trkpt lat="38.41501" lon="14.98704">
        <ele>6.39</ele>
        <time>2018-04-15T16:43:12Z</time>
      </trkpt>
      <trkpt lat="38.41506" lon="14.98668">
        <ele>5.91</ele>
        <time>2018-04-15T16:43:32Z</time>
      </trkpt>
      <trkpt lat="38.4151" lon="14.98634">
        <ele>5.42</ele>
        <time>2018-04-15T16:43:52Z</time>
      </trkpt>
      <trkpt lat="38.41515" lon="14.98596">
        <ele>5.42</ele>
        <time>2018-04-15T16:44:15Z</time>
      </trkpt>
      <trkpt lat="38.4152" lon="14.98552">
        <ele>4.94</ele>
        <time>2018-04-15T16:44:42Z</time>
      </trkpt>
      <trkpt lat="38.41519" lon="14.98519">
        <ele>3.98</ele>
        <time>2018-04-15T16:45:05Z</time>
      </trkpt>
      <trkpt lat="38.41517" lon="14.98484">
        <ele>4.46</ele>
        <time>2018-04-15T16:45:29Z</time>
      </trkpt>
      <trkpt lat="38.41516" lon="14.9845">
        <ele>4.46</ele>
        <time>2018-04-15T16:45:51Z</time>
      </trkpt>
      <trkpt lat="38.4152" lon="14.98408">
        <ele>3.98</ele>
        <time>2018-04-15T16:46:19Z</time>
      </trkpt>
      <trkpt lat="38.41524" lon="14.98376">
        <ele>4.46</ele>
        <time>2018-04-15T16:46:40Z</time>
      </trkpt>
      <trkpt lat="38.41536" lon="14.98337">
        <ele>4.94</ele>
        <time>2018-04-15T16:47:05Z</time>
      </trkpt>
      <trkpt lat="38.41545" lon="14.98298">
        <ele>4.94</ele>
        <time>2018-04-15T16:47:29Z</time>
      </trkpt>
      <trkpt lat="38.41545" lon="14.98262">
        <ele>4.46</ele>
        <time>2018-04-15T16:47:49Z</time>
      </trkpt>
      <trkpt lat="38.41548" lon="14.9821">
        <ele>3.5</ele>
        <time>2018-04-15T16:48:11Z</time>
      </trkpt>
      <trkpt lat="38.41549" lon="14.98135">
        <ele>4.46</ele>
        <time>2018-04-15T16:48:37Z</time>
      </trkpt>
      <trkpt lat="38.41546" lon="14.98062">
        <ele>4.94</ele>
        <time>2018-04-15T16:49:02Z</time>
      </trkpt>
      <trkpt lat="38.41542" lon="14.97994">
        <ele>4.94</ele>
        <time>2018-04-15T16:49:25Z</time>
      </trkpt>
      <trkpt lat="38.41543" lon="14.97922">
        <ele>5.42</ele>
        <time>2018-04-15T16:49:48Z</time>
      </trkpt>
      <trkpt lat="38.41547" lon="14.9785">
        <ele>4.94</ele>
        <time>2018-04-15T16:50:11Z</time>
      </trkpt>
      <trkpt lat="38.41552" lon="14.97779">
        <ele>3.98</ele>
        <time>2018-04-15T16:50:33Z</time>
      </trkpt>
      <trkpt lat="38.41554" lon="14.97714">
        <ele>3.98</ele>
        <time>2018-04-15T16:50:54Z</time>
      </trkpt>
      <trkpt lat="38.41557" lon="14.97642">
        <ele>3.98</ele>
        <time>2018-04-15T16:51:17Z</time>
      </trkpt>
      <trkpt lat="38.41553" lon="14.97566">
        <ele>3.02</ele>
        <time>2018-04-15T16:51:42Z</time>
      </trkpt>
      <trkpt lat="38.41547" lon="14.97499">
        <ele>3.5</ele>
        <time>2018-04-15T16:52:03Z</time>
      </trkpt>
      <trkpt lat="38.41547" lon="14.97424">
        <ele>3.5</ele>
        <time>2018-04-15T16:52:26Z</time>
      </trkpt>
      <trkpt lat="38.41551" lon="14.97353">
        <ele>3.98</ele>
        <time>2018-04-15T16:52:48Z</time>
      </trkpt>
      <trkpt lat="38.41555" lon="14.97303">
        <ele>3.98</ele>
        <time>2018-04-15T16:53:04Z</time>
      </trkpt>
      <trkpt lat="38.41564" lon="14.97262">
        <ele>3.02</ele>
        <time>2018-04-15T16:53:17Z</time>
      </trkpt>
      <trkpt lat="38.41572" lon="14.97205">
        <ele>2.54</ele>
        <time>2018-04-15T16:53:34Z</time>
      </trkpt>
      <trkpt lat="38.41574" lon="14.97146">
        <ele>3.5</ele>
        <time>2018-04-15T16:53:52Z</time>
      </trkpt>
      <trkpt lat="38.41576" lon="14.97085">
        <ele>3.5</ele>
        <time>2018-04-15T16:54:10Z</time>
      </trkpt>
      <trkpt lat="38.41576" lon="14.97049">
        <ele>3.5</ele>
        <time>2018-04-15T16:54:21Z</time>
      </trkpt>
      <trkpt lat="38.41578" lon="14.97002">
        <ele>4.94</ele>
        <time>2018-04-15T16:54:37Z</time>
      </trkpt>
      <trkpt lat="38.41581" lon="14.96961">
        <ele>4.94</ele>
        <time>2018-04-15T16:54:52Z</time>
      </trkpt>
      <trkpt lat="38.41581" lon="14.96914">
        <ele>5.91</ele>
        <time>2018-04-15T16:55:09Z</time>
      </trkpt>
      <trkpt lat="38.41575" lon="14.96873">
        <ele>4.46</ele>
        <time>2018-04-15T16:55:24Z</time>
      </trkpt>
      <trkpt lat="38.41567" lon="14.96834">
        <ele>3.02</ele>
        <time>2018-04-15T16:55:38Z</time>
      </trkpt>
      <trkpt lat="38.41559" lon="14.96784">
        <ele>2.06</ele>
        <time>2018-04-15T16:55:57Z</time>
      </trkpt>
      <trkpt lat="38.41549" lon="14.96742">
        <ele>3.5</ele>
        <time>2018-04-15T16:56:13Z</time>
      </trkpt>
      <trkpt lat="38.41537" lon="14.96701">
        <ele>3.5</ele>
        <time>2018-04-15T16:56:29Z</time>
      </trkpt>
      <trkpt lat="38.41527" lon="14.96661">
        <ele>2.06</ele>
        <time>2018-04-15T16:56:45Z</time>
      </trkpt>
      <trkpt lat="38.41516" lon="14.96621">
        <ele>2.54</ele>
        <time>2018-04-15T16:57:01Z</time>
      </trkpt>
      <trkpt lat="38.41501" lon="14.96587">
        <ele>3.02</ele>
        <time>2018-04-15T16:57:16Z</time>
      </trkpt>
      <trkpt lat="38.41483" lon="14.96543">
        <ele>0.62</ele>
        <time>2018-04-15T16:57:35Z</time>
      </trkpt>
      <trkpt lat="38.4147" lon="14.96487">
        <ele>2.06</ele>
        <time>2018-04-15T16:57:58Z</time>
      </trkpt>
      <trkpt lat="38.41469" lon="14.96458">
        <ele>2.54</ele>
        <time>2018-04-15T16:58:12Z</time>
      </trkpt>
      <trkpt lat="38.41467" lon="14.9643">
        <ele>2.54</ele>
        <time>2018-04-15T16:58:26Z</time>
      </trkpt>
      <trkpt lat="38.41476" lon="14.96422">
        <ele>3.5</ele>
        <time>2018-04-15T16:58:32Z</time>
      </trkpt>
      <trkpt lat="38.41524" lon="14.96411">
        <ele>3.02</ele>
        <time>2018-04-15T16:58:59Z</time>
      </trkpt>
      <trkpt lat="38.41561" lon="14.964">
        <ele>3.5</ele>
        <time>2018-04-15T16:59:18Z</time>
      </trkpt>
      <trkpt lat="38.41603" lon="14.9638">
        <ele>5.42</ele>
        <time>2018-04-15T16:59:40Z</time>
      </trkpt>
      <trkpt lat="38.41631" lon="14.96358">
        <ele>4.94</ele>
        <time>2018-04-15T16:59:58Z</time>
      </trkpt>
      <trkpt lat="38.41659" lon="14.9632">
        <ele>5.42</ele>
        <time>2018-04-15T17:00:20Z</time>
      </trkpt>
      <trkpt lat="38.41684" lon="14.96294">
        <ele>4.94</ele>
        <time>2018-04-15T17:00:37Z</time>
      </trkpt>
      <trkpt lat="38.41706" lon="14.96278">
        <ele>3.5</ele>
        <time>2018-04-15T17:00:50Z</time>
      </trkpt>
      <trkpt lat="38.41741" lon="14.96256">
        <ele>3.5</ele>
        <time>2018-04-15T17:01:11Z</time>
      </trkpt>
      <trkpt lat="38.41768" lon="14.96241">
        <ele>2.54</ele>
        <time>2018-04-15T17:01:28Z</time>
      </trkpt>
      <trkpt lat="38.41789" lon="14.96221">
        <ele>3.5</ele>
        <time>2018-04-15T17:01:45Z</time>
      </trkpt>
      <trkpt lat="38.41811" lon="14.96204">
        <ele>3.02</ele>
        <time>2018-04-15T17:02:03Z</time>
      </trkpt>
      <trkpt lat="38.41834" lon="14.96196">
        <ele>1.1</ele>
        <time>2018-04-15T17:02:16Z</time>
      </trkpt>
      <trkpt lat="38.41852" lon="14.96194">
        <ele>0.14</ele>
        <time>2018-04-15T17:02:25Z</time>
      </trkpt>
      <trkpt lat="38.41859" lon="14.9622">
        <ele>0.62</ele>
        <time>2018-04-15T17:02:40Z</time>
      </trkpt>
      <trkpt lat="38.41854" lon="14.96225">
        <ele>0.62</ele>
        <time>2018-04-15T17:02:44Z</time>
      </trkpt>
      <trkpt lat="38.41852" lon="14.96227">
        <ele>0.62</ele>
        <time>2018-04-15T17:02:46Z</time>
      </trkpt>
      <trkpt lat="38.41845" lon="14.96229">
        <ele>0.14</ele>
        <time>2018-04-15T17:02:50Z</time>
      </trkpt>
      <trkpt lat="38.41828" lon="14.96227">
        <ele>-0.82</ele>
        <time>2018-04-15T17:03:06Z</time>
      </trkpt>
      <trkpt lat="38.41821" lon="14.96225">
        <ele>0.62</ele>
        <time>2018-04-15T17:03:14Z</time>
      </trkpt>
      <trkpt lat="38.41819" lon="14.96226">
        <ele>0.62</ele>
        <time>2018-04-15T17:03:17Z</time>
      </trkpt>
      <trkpt lat="38.41809" lon="14.96218">
        <ele>0.14</ele>
        <time>2018-04-15T17:03:32Z</time>
      </trkpt>
      <trkpt lat="38.41806" lon="14.96214">
        <ele>1.58</ele>
        <time>2018-04-15T17:03:40Z</time>
      </trkpt>
      <trkpt lat="38.41804" lon="14.96213">
        <ele>1.58</ele>
        <time>2018-04-15T17:03:42Z</time>
      </trkpt>
      <trkpt lat="38.41797" lon="14.96212">
        <ele>1.1</ele>
        <time>2018-04-15T17:03:55Z</time>
      </trkpt>
      <trkpt lat="38.41791" lon="14.96211">
        <ele>0.62</ele>
        <time>2018-04-15T17:04:10Z</time>
      </trkpt>
      <trkpt lat="38.41784" lon="14.96207">
        <ele>0.14</ele>
        <time>2018-04-15T17:04:25Z</time>
      </trkpt>
      <trkpt lat="38.41778" lon="14.96204">
        <ele>0.14</ele>
        <time>2018-04-15T17:04:47Z</time>
      </trkpt>
      <trkpt lat="38.41766" lon="14.96191">
        <ele>-0.34</ele>
        <time>2018-04-15T17:05:06Z</time>
      </trkpt>
      <trkpt lat="38.41755" lon="14.96186">
        <ele>0.62</ele>
        <time>2018-04-15T17:05:26Z</time>
      </trkpt>
      <trkpt lat="38.41748" lon="14.96179">
        <ele>0.14</ele>
        <time>2018-04-15T17:05:41Z</time>
      </trkpt>
      <trkpt lat="38.41744" lon="14.96175">
        <ele>2.06</ele>
        <time>2018-04-15T17:05:57Z</time>
      </trkpt>
      <trkpt lat="38.41744" lon="14.96177">
        <ele>1.58</ele>
        <time>2018-04-15T17:06:01Z</time>
      </trkpt>
      <trkpt lat="38.41743" lon="14.9618">
        <ele>0.14</ele>
        <time>2018-04-15T17:06:12Z</time>
      </trkpt>
      <trkpt lat="38.41736" lon="14.96178">
        <ele>1.1</ele>
        <time>2018-04-15T17:06:24Z</time>
      </trkpt>
      <trkpt lat="38.41734" lon="14.9618">
        <ele>1.1</ele>
        <time>2018-04-15T17:06:40Z</time>
      </trkpt>
      <trkpt lat="38.41723" lon="14.9618">
        <ele>1.58</ele>
        <time>2018-04-15T17:06:59Z</time>
      </trkpt>
      <trkpt lat="38.41714" lon="14.9618">
        <ele>1.58</ele>
        <time>2018-04-15T17:07:09Z</time>
      </trkpt>
      <trkpt lat="38.41697" lon="14.96181">
        <ele>-0.34</ele>
        <time>2018-04-15T17:07:30Z</time>
      </trkpt>
      <trkpt lat="38.41681" lon="14.96176">
        <ele>-0.82</ele>
        <time>2018-04-15T17:07:50Z</time>
      </trkpt>
      <trkpt lat="38.41671" lon="14.96162">
        <ele>0.14</ele>
        <time>2018-04-15T17:08:13Z</time>
      </trkpt>
      <trkpt lat="38.41669" lon="14.96158">
        <ele>1.58</ele>
        <time>2018-04-15T17:08:31Z</time>
      </trkpt>
      <trkpt lat="38.41666" lon="14.96163">
        <ele>2.54</ele>
        <time>2018-04-15T17:08:52Z</time>
      </trkpt>
      <trkpt lat="38.4167" lon="14.96171">
        <ele>2.54</ele>
        <time>2018-04-15T17:09:11Z</time>
      </trkpt>
      <trkpt lat="38.41671" lon="14.96173">
        <ele>2.06</ele>
        <time>2018-04-15T17:09:25Z</time>
      </trkpt>
      <trkpt lat="38.41674" lon="14.96174">
        <ele>1.58</ele>
        <time>2018-04-15T17:09:44Z</time>
      </trkpt>
      <trkpt lat="38.41677" lon="14.96174">
        <ele>2.06</ele>
        <time>2018-04-15T17:10:05Z</time>
      </trkpt>
      <trkpt lat="38.4168" lon="14.96177">
        <ele>2.06</ele>
        <time>2018-04-15T17:10:23Z</time>
      </trkpt>
      <trkpt lat="38.41682" lon="14.96179">
        <ele>1.1</ele>
        <time>2018-04-15T17:10:41Z</time>
      </trkpt>
      <trkpt lat="38.41681" lon="14.96179">
        <ele>1.1</ele>
        <time>2018-04-15T17:11:02Z</time>
      </trkpt>
      <trkpt lat="38.41682" lon="14.96181">
        <ele>1.1</ele>
        <time>2018-04-15T17:11:25Z</time>
      </trkpt>
      <trkpt lat="38.41678" lon="14.96188">
        <ele>1.1</ele>
        <time>2018-04-15T17:11:49Z</time>
      </trkpt>
      <trkpt lat="38.41675" lon="14.96188">
        <ele>-1.3</ele>
        <time>2018-04-15T17:12:10Z</time>
      </trkpt>
      <trkpt lat="38.41673" lon="14.96191">
        <ele>-1.3</ele>
        <time>2018-04-15T17:12:29Z</time>
      </trkpt>
      <trkpt lat="38.4167" lon="14.96191">
        <ele>-0.82</ele>
        <time>2018-04-15T17:12:51Z</time>
      </trkpt>
      <trkpt lat="38.41672" lon="14.96191">
        <ele>-0.82</ele>
        <time>2018-04-15T17:13:11Z</time>
      </trkpt>
      <trkpt lat="38.41673" lon="14.9619">
        <ele>1.1</ele>
        <time>2018-04-15T17:13:28Z</time>
      </trkpt>
      <trkpt lat="38.41674" lon="14.9619">
        <ele>0.62</ele>
        <time>2018-04-15T17:13:51Z</time>
      </trkpt>
      <trkpt lat="38.41675" lon="14.9619">
        <ele>1.1</ele>
        <time>2018-04-15T17:14:24Z</time>
      </trkpt>
      <trkpt lat="38.41676" lon="14.96188">
        <ele>2.06</ele>
        <time>2018-04-15T17:14:44Z</time>
      </trkpt>
      <trkpt lat="38.41676" lon="14.96189">
        <ele>2.06</ele>
        <time>2018-04-15T17:15:08Z</time>
      </trkpt>
      <trkpt lat="38.41675" lon="14.96188">
        <ele>2.06</ele>
        <time>2018-04-15T17:15:33Z</time>
      </trkpt>
      <trkpt lat="38.41677" lon="14.96188">
        <ele>1.58</ele>
        <time>2018-04-15T17:16:00Z</time>
      </trkpt>
      <trkpt lat="38.41677" lon="14.96188">
        <ele>1.58</ele>
        <time>2018-04-15T17:16:29Z</time>
      </trkpt>
      <trkpt lat="38.41679" lon="14.96185">
        <ele>2.06</ele>
        <time>2018-04-15T17:16:59Z</time>
      </trkpt>
      <trkpt lat="38.4168" lon="14.96183">
        <ele>2.54</ele>
        <time>2018-04-15T17:17:27Z</time>
      </trkpt>
      <trkpt lat="38.4168" lon="14.96184">
        <ele>2.54</ele>
        <time>2018-04-15T17:17:52Z</time>
      </trkpt>
      <trkpt lat="38.41678" lon="14.96189">
        <ele>2.06</ele>
        <time>2018-04-15T17:18:17Z</time>
      </trkpt>
      <trkpt lat="38.41675" lon="14.96189">
        <ele>2.54</ele>
        <time>2018-04-15T17:18:38Z</time>
      </trkpt>
      <trkpt lat="38.41673" lon="14.96188">
        <ele>3.02</ele>
        <time>2018-04-15T17:18:56Z</time>
      </trkpt>
      <trkpt lat="38.41674" lon="14.9619">
        <ele>2.54</ele>
        <time>2018-04-15T17:19:12Z</time>
      </trkpt>
      <trkpt lat="38.41674" lon="14.96189">
        <ele>2.54</ele>
        <time>2018-04-15T17:19:38Z</time>
      </trkpt>
      <trkpt lat="38.41675" lon="14.96189">
        <ele>2.06</ele>
        <time>2018-04-15T17:19:56Z</time>
      </trkpt>
      <trkpt lat="38.41677" lon="14.96189">
        <ele>2.06</ele>
        <time>2018-04-15T17:20:17Z</time>
      </trkpt>
      <trkpt lat="38.41677" lon="14.96189">
        <ele>2.06</ele>
        <time>2018-04-15T17:20:49Z</time>
      </trkpt>
      <trkpt lat="38.41677" lon="14.96189">
        <ele>2.06</ele>
        <time>2018-04-15T17:21:11Z</time>
      </trkpt>
      <trkpt lat="38.41676" lon="14.96189">
        <ele>2.06</ele>
        <time>2018-04-15T17:21:36Z</time>
      </trkpt>
      <trkpt lat="38.41677" lon="14.96189">
        <ele>2.06</ele>
        <time>2018-04-15T17:22:04Z</time>
      </trkpt>
      <trkpt lat="38.4168" lon="14.96192">
        <ele>1.1</ele>
        <time>2018-04-15T17:22:22Z</time>
      </trkpt>
      <trkpt lat="38.41682" lon="14.96197">
        <ele>-0.34</ele>
        <time>2018-04-15T17:22:35Z</time>
      </trkpt>
      <trkpt lat="38.41682" lon="14.96196">
        <ele>-0.34</ele>
        <time>2018-04-15T17:23:02Z</time>
      </trkpt>
      <trkpt lat="38.41683" lon="14.96196">
        <ele>0.62</ele>
        <time>2018-04-15T17:23:26Z</time>
      </trkpt>
      <trkpt lat="38.41685" lon="14.96196">
        <ele>0.62</ele>
        <time>2018-04-15T17:23:41Z</time>
      </trkpt>
      <trkpt lat="38.41686" lon="14.96197">
        <ele>0.62</ele>
        <time>2018-04-15T17:23:58Z</time>
      </trkpt>
      <trkpt lat="38.41685" lon="14.96194">
        <ele>-0.34</ele>
        <time>2018-04-15T17:24:11Z</time>
      </trkpt>
      <trkpt lat="38.41686" lon="14.96194">
        <ele>-0.82</ele>
        <time>2018-04-15T17:24:25Z</time>
      </trkpt>
      <trkpt lat="38.41685" lon="14.96196">
        <ele>-1.79</ele>
        <time>2018-04-15T17:24:41Z</time>
      </trkpt>
      <trkpt lat="38.41686" lon="14.96198">
        <ele>-2.75</ele>
        <time>2018-04-15T17:24:57Z</time>
      </trkpt>
      <trkpt lat="38.41686" lon="14.96203">
        <ele>-3.23</ele>
        <time>2018-04-15T17:25:07Z</time>
      </trkpt>
      <trkpt lat="38.41684" lon="14.96204">
        <ele>-1.79</ele>
        <time>2018-04-15T17:25:27Z</time>
      </trkpt>
      <trkpt lat="38.41684" lon="14.96202">
        <ele>0.14</ele>
        <time>2018-04-15T17:25:46Z</time>
      </trkpt>
      <trkpt lat="38.41687" lon="14.96201">
        <ele>-0.34</ele>
        <time>2018-04-15T17:26:00Z</time>
      </trkpt>
      <trkpt lat="38.41689" lon="14.96199">
        <ele>0.62</ele>
        <time>2018-04-15T17:26:15Z</time>
      </trkpt>
      <trkpt lat="38.41689" lon="14.96195">
        <ele>0.62</ele>
        <time>2018-04-15T17:26:30Z</time>
      </trkpt>
      <trkpt lat="38.41689" lon="14.96195">
        <ele>0.14</ele>
        <time>2018-04-15T17:26:47Z</time>
      </trkpt>
      <trkpt lat="38.41684" lon="14.96194">
        <ele>0.62</ele>
        <time>2018-04-15T17:27:05Z</time>
      </trkpt>
      <trkpt lat="38.41683" lon="14.96194">
        <ele>0.62</ele>
        <time>2018-04-15T17:27:19Z</time>
      </trkpt>
      <trkpt lat="38.41684" lon="14.96196">
        <ele>0.62</ele>
        <time>2018-04-15T17:27:42Z</time>
      </trkpt>
      <trkpt lat="38.41682" lon="14.96194">
        <ele>0.14</ele>
        <time>2018-04-15T17:27:57Z</time>
      </trkpt>
      <trkpt lat="38.41683" lon="14.96196">
        <ele>-0.34</ele>
        <time>2018-04-15T17:28:08Z</time>
      </trkpt>
      <trkpt lat="38.41682" lon="14.96196">
        <ele>0.14</ele>
        <time>2018-04-15T17:28:24Z</time>
      </trkpt>
      <trkpt lat="38.4168" lon="14.96197">
        <ele>1.58</ele>
        <time>2018-04-15T17:28:41Z</time>
      </trkpt>
      <trkpt lat="38.4168" lon="14.962">
        <ele>1.58</ele>
        <time>2018-04-15T17:28:56Z</time>
      </trkpt>
      <trkpt lat="38.4168" lon="14.96199">
        <ele>1.1</ele>
        <time>2018-04-15T17:29:16Z</time>
      </trkpt>
      <trkpt lat="38.4168" lon="14.96199">
        <ele>1.1</ele>
        <time>2018-04-15T17:29:38Z</time>
      </trkpt>
      <trkpt lat="38.41682" lon="14.96198">
        <ele>2.54</ele>
        <time>2018-04-15T17:30:00Z</time>
      </trkpt>
      <trkpt lat="38.41684" lon="14.96197">
        <ele>3.02</ele>
        <time>2018-04-15T17:30:23Z</time>
      </trkpt>
      <trkpt lat="38.41684" lon="14.96197">
        <ele>2.54</ele>
        <time>2018-04-15T17:30:39Z</time>
      </trkpt>
      <trkpt lat="38.41683" lon="14.96197">
        <ele>2.54</ele>
        <time>2018-04-15T17:30:56Z</time>
      </trkpt>
      <trkpt lat="38.41681" lon="14.96196">
        <ele>2.54</ele>
        <time>2018-04-15T17:31:06Z</time>
      </trkpt>
      <trkpt lat="38.41681" lon="14.96197">
        <ele>2.54</ele>
        <time>2018-04-15T17:31:22Z</time>
      </trkpt>
      <trkpt lat="38.4168" lon="14.96199">
        <ele>2.54</ele>
        <time>2018-04-15T17:31:34Z</time>
      </trkpt>
      <trkpt lat="38.41679" lon="14.96199">
        <ele>2.54</ele>
        <time>2018-04-15T17:31:46Z</time>
      </trkpt>
    </trkseg>
  </trk>
</gpx>